<?xml version="1.0" encoding="UTF-8" standalone="no" ?>
<gpx xmlns="http://www.topografix.com/GPX/1/1" xmlns:xsi="http://www.w3.org/2001/XMLSchema-instance" xsi:schemaLocation="http://www.topografix.com/GPX/1/1 http://www.topografix.com/GPX/1/1/gpx.xsd" version="1.1" creator="VisuGPX - https://www.visugpx.com">
  <metadata>
    <name>Irun-Pampelune</name>
  </metadata>
  <trk>
    <name><![CDATA[EV1-ES-Section-01 on AllTrails]]></name>
    <extensions>
      <line xmlns="http://www.topografix.com/GPX/gpx_style/0/2">
        <color>00FF00</color>
        <width>4</width>
      </line>
    </extensions>
    <trkseg>
      <trkpt lat="43.29357" lon="-1.7297">
        <ele>16</ele>
        <time>2010-01-01T00:00:00Z</time>
      </trkpt>
      <trkpt lat="43.29349" lon="-1.72973">
        <ele>16</ele>
        <time>2010-01-01T00:00:03Z</time>
      </trkpt>
      <trkpt lat="43.29315" lon="-1.72986">
        <ele>19</ele>
        <time>2010-01-01T00:00:17Z</time>
      </trkpt>
      <trkpt lat="43.29302" lon="-1.72992">
        <ele>23</ele>
        <time>2010-01-01T00:00:23Z</time>
      </trkpt>
      <trkpt lat="43.29293" lon="-1.72996">
        <ele>25</ele>
        <time>2010-01-01T00:00:26Z</time>
      </trkpt>
      <trkpt lat="43.29279" lon="-1.72995">
        <ele>27</ele>
        <time>2010-01-01T00:00:32Z</time>
      </trkpt>
      <trkpt lat="43.29262" lon="-1.72991">
        <ele>28</ele>
        <time>2010-01-01T00:00:39Z</time>
      </trkpt>
      <trkpt lat="43.29244" lon="-1.72988">
        <ele>30</ele>
        <time>2010-01-01T00:00:46Z</time>
      </trkpt>
      <trkpt lat="43.29233" lon="-1.72983">
        <ele>30</ele>
        <time>2010-01-01T00:00:51Z</time>
      </trkpt>
      <trkpt lat="43.29221" lon="-1.72975">
        <ele>29</ele>
        <time>2010-01-01T00:00:56Z</time>
      </trkpt>
      <trkpt lat="43.29194" lon="-1.72955">
        <ele>29</ele>
        <time>2010-01-01T00:01:08Z</time>
      </trkpt>
      <trkpt lat="43.2918" lon="-1.7294">
        <ele>31</ele>
        <time>2010-01-01T00:01:15Z</time>
      </trkpt>
      <trkpt lat="43.29163" lon="-1.72914">
        <ele>26</ele>
        <time>2010-01-01T00:01:26Z</time>
      </trkpt>
      <trkpt lat="43.29159" lon="-1.72894">
        <ele>23</ele>
        <time>2010-01-01T00:01:32Z</time>
      </trkpt>
      <trkpt lat="43.29151" lon="-1.72874">
        <ele>21</ele>
        <time>2010-01-01T00:01:38Z</time>
      </trkpt>
      <trkpt lat="43.29122" lon="-1.72816">
        <ele>23</ele>
        <time>2010-01-01T00:01:59Z</time>
      </trkpt>
      <trkpt lat="43.2911" lon="-1.72791">
        <ele>23</ele>
        <time>2010-01-01T00:02:07Z</time>
      </trkpt>
      <trkpt lat="43.29104" lon="-1.72757">
        <ele>25</ele>
        <time>2010-01-01T00:02:18Z</time>
      </trkpt>
      <trkpt lat="43.29102" lon="-1.72709">
        <ele>27</ele>
        <time>2010-01-01T00:02:32Z</time>
      </trkpt>
      <trkpt lat="43.29104" lon="-1.7264">
        <ele>26</ele>
        <time>2010-01-01T00:02:52Z</time>
      </trkpt>
      <trkpt lat="43.29106" lon="-1.72553">
        <ele>25</ele>
        <time>2010-01-01T00:03:17Z</time>
      </trkpt>
      <trkpt lat="43.29107" lon="-1.72497">
        <ele>22</ele>
        <time>2010-01-01T00:03:33Z</time>
      </trkpt>
      <trkpt lat="43.29106" lon="-1.72451">
        <ele>23</ele>
        <time>2010-01-01T00:03:47Z</time>
      </trkpt>
      <trkpt lat="43.2911" lon="-1.72396">
        <ele>23</ele>
        <time>2010-01-01T00:04:03Z</time>
      </trkpt>
      <trkpt lat="43.29108" lon="-1.72301">
        <ele>24</ele>
        <time>2010-01-01T00:04:31Z</time>
      </trkpt>
      <trkpt lat="43.29107" lon="-1.72235">
        <ele>28</ele>
        <time>2010-01-01T00:04:50Z</time>
      </trkpt>
      <trkpt lat="43.29107" lon="-1.7223">
        <ele>29</ele>
        <time>2010-01-01T00:04:51Z</time>
      </trkpt>
      <trkpt lat="43.29109" lon="-1.72192">
        <ele>29</ele>
        <time>2010-01-01T00:05:02Z</time>
      </trkpt>
      <trkpt lat="43.29112" lon="-1.72128">
        <ele>25</ele>
        <time>2010-01-01T00:05:21Z</time>
      </trkpt>
      <trkpt lat="43.29111" lon="-1.72052">
        <ele>26</ele>
        <time>2010-01-01T00:05:43Z</time>
      </trkpt>
      <trkpt lat="43.29111" lon="-1.72026">
        <ele>27</ele>
        <time>2010-01-01T00:05:51Z</time>
      </trkpt>
      <trkpt lat="43.29112" lon="-1.72009">
        <ele>26</ele>
        <time>2010-01-01T00:05:56Z</time>
      </trkpt>
      <trkpt lat="43.2911" lon="-1.7194">
        <ele>31</ele>
        <time>2010-01-01T00:06:16Z</time>
      </trkpt>
      <trkpt lat="43.29101" lon="-1.71882">
        <ele>45</ele>
        <time>2010-01-01T00:06:33Z</time>
      </trkpt>
      <trkpt lat="43.29095" lon="-1.71836">
        <ele>54</ele>
        <time>2010-01-01T00:06:47Z</time>
      </trkpt>
      <trkpt lat="43.29091" lon="-1.71804">
        <ele>53</ele>
        <time>2010-01-01T00:06:56Z</time>
      </trkpt>
      <trkpt lat="43.29086" lon="-1.71777">
        <ele>52</ele>
        <time>2010-01-01T00:07:04Z</time>
      </trkpt>
      <trkpt lat="43.29041" lon="-1.71482">
        <ele>44</ele>
        <time>2010-01-01T00:08:32Z</time>
      </trkpt>
      <trkpt lat="43.29033" lon="-1.71449">
        <ele>42</ele>
        <time>2010-01-01T00:08:42Z</time>
      </trkpt>
      <trkpt lat="43.29029" lon="-1.7143">
        <ele>40</ele>
        <time>2010-01-01T00:08:48Z</time>
      </trkpt>
      <trkpt lat="43.29026" lon="-1.7139">
        <ele>41</ele>
        <time>2010-01-01T00:09:00Z</time>
      </trkpt>
      <trkpt lat="43.29026" lon="-1.7136">
        <ele>40</ele>
        <time>2010-01-01T00:09:09Z</time>
      </trkpt>
      <trkpt lat="43.29024" lon="-1.7135">
        <ele>42</ele>
        <time>2010-01-01T00:09:11Z</time>
      </trkpt>
      <trkpt lat="43.29029" lon="-1.71321">
        <ele>38</ele>
        <time>2010-01-01T00:09:20Z</time>
      </trkpt>
      <trkpt lat="43.29027" lon="-1.71287">
        <ele>36</ele>
        <time>2010-01-01T00:09:30Z</time>
      </trkpt>
      <trkpt lat="43.2902" lon="-1.71264">
        <ele>36</ele>
        <time>2010-01-01T00:09:37Z</time>
      </trkpt>
      <trkpt lat="43.29009" lon="-1.71249">
        <ele>40</ele>
        <time>2010-01-01T00:09:44Z</time>
      </trkpt>
      <trkpt lat="43.28962" lon="-1.71219">
        <ele>41</ele>
        <time>2010-01-01T00:10:04Z</time>
      </trkpt>
      <trkpt lat="43.28944" lon="-1.71216">
        <ele>40</ele>
        <time>2010-01-01T00:10:11Z</time>
      </trkpt>
      <trkpt lat="43.28938" lon="-1.71216">
        <ele>38</ele>
        <time>2010-01-01T00:10:14Z</time>
      </trkpt>
      <trkpt lat="43.28913" lon="-1.71216">
        <ele>31</ele>
        <time>2010-01-01T00:10:24Z</time>
      </trkpt>
      <trkpt lat="43.28894" lon="-1.71204">
        <ele>25</ele>
        <time>2010-01-01T00:10:32Z</time>
      </trkpt>
      <trkpt lat="43.28871" lon="-1.7123">
        <ele>26</ele>
        <time>2010-01-01T00:10:44Z</time>
      </trkpt>
      <trkpt lat="43.2887" lon="-1.71232">
        <ele>26</ele>
        <time>2010-01-01T00:10:45Z</time>
      </trkpt>
      <trkpt lat="43.28853" lon="-1.71247">
        <ele>24</ele>
        <time>2010-01-01T00:10:53Z</time>
      </trkpt>
      <trkpt lat="43.28846" lon="-1.71256">
        <ele>26</ele>
        <time>2010-01-01T00:10:57Z</time>
      </trkpt>
      <trkpt lat="43.28842" lon="-1.71265">
        <ele>28</ele>
        <time>2010-01-01T00:11:00Z</time>
      </trkpt>
      <trkpt lat="43.28804" lon="-1.7128">
        <ele>26</ele>
        <time>2010-01-01T00:11:15Z</time>
      </trkpt>
      <trkpt lat="43.28774" lon="-1.71293">
        <ele>31</ele>
        <time>2010-01-01T00:11:28Z</time>
      </trkpt>
      <trkpt lat="43.28744" lon="-1.71303">
        <ele>34</ele>
        <time>2010-01-01T00:11:40Z</time>
      </trkpt>
      <trkpt lat="43.2873" lon="-1.71306">
        <ele>35</ele>
        <time>2010-01-01T00:11:46Z</time>
      </trkpt>
      <trkpt lat="43.28573" lon="-1.71285">
        <ele>25</ele>
        <time>2010-01-01T00:12:49Z</time>
      </trkpt>
      <trkpt lat="43.28554" lon="-1.71285">
        <ele>22</ele>
        <time>2010-01-01T00:12:57Z</time>
      </trkpt>
      <trkpt lat="43.28545" lon="-1.71287">
        <ele>23</ele>
        <time>2010-01-01T00:13:01Z</time>
      </trkpt>
      <trkpt lat="43.2852" lon="-1.71293">
        <ele>29</ele>
        <time>2010-01-01T00:13:11Z</time>
      </trkpt>
      <trkpt lat="43.28484" lon="-1.7131">
        <ele>36</ele>
        <time>2010-01-01T00:13:26Z</time>
      </trkpt>
      <trkpt lat="43.2844" lon="-1.71332">
        <ele>38</ele>
        <time>2010-01-01T00:13:45Z</time>
      </trkpt>
      <trkpt lat="43.28279" lon="-1.7141">
        <ele>50</ele>
        <time>2010-01-01T00:14:53Z</time>
      </trkpt>
      <trkpt lat="43.28248" lon="-1.71414">
        <ele>50</ele>
        <time>2010-01-01T00:15:06Z</time>
      </trkpt>
      <trkpt lat="43.28226" lon="-1.71416">
        <ele>47</ele>
        <time>2010-01-01T00:15:14Z</time>
      </trkpt>
      <trkpt lat="43.28198" lon="-1.71419">
        <ele>46</ele>
        <time>2010-01-01T00:15:26Z</time>
      </trkpt>
      <trkpt lat="43.28174" lon="-1.71422">
        <ele>47</ele>
        <time>2010-01-01T00:15:35Z</time>
      </trkpt>
      <trkpt lat="43.2814" lon="-1.71426">
        <ele>46</ele>
        <time>2010-01-01T00:15:49Z</time>
      </trkpt>
      <trkpt lat="43.28107" lon="-1.7143">
        <ele>44</ele>
        <time>2010-01-01T00:16:02Z</time>
      </trkpt>
      <trkpt lat="43.28067" lon="-1.71428">
        <ele>41</ele>
        <time>2010-01-01T00:16:18Z</time>
      </trkpt>
      <trkpt lat="43.28052" lon="-1.71427">
        <ele>39</ele>
        <time>2010-01-01T00:16:24Z</time>
      </trkpt>
      <trkpt lat="43.28035" lon="-1.71426">
        <ele>38</ele>
        <time>2010-01-01T00:16:31Z</time>
      </trkpt>
      <trkpt lat="43.28008" lon="-1.7142">
        <ele>37</ele>
        <time>2010-01-01T00:16:42Z</time>
      </trkpt>
      <trkpt lat="43.27983" lon="-1.71412">
        <ele>37</ele>
        <time>2010-01-01T00:16:52Z</time>
      </trkpt>
      <trkpt lat="43.27964" lon="-1.71406">
        <ele>36</ele>
        <time>2010-01-01T00:17:00Z</time>
      </trkpt>
      <trkpt lat="43.27839" lon="-1.71372">
        <ele>45</ele>
        <time>2010-01-01T00:17:51Z</time>
      </trkpt>
      <trkpt lat="43.278" lon="-1.71362">
        <ele>47</ele>
        <time>2010-01-01T00:18:07Z</time>
      </trkpt>
      <trkpt lat="43.27751" lon="-1.7135">
        <ele>41</ele>
        <time>2010-01-01T00:18:27Z</time>
      </trkpt>
      <trkpt lat="43.27583" lon="-1.713">
        <ele>38</ele>
        <time>2010-01-01T00:19:36Z</time>
      </trkpt>
      <trkpt lat="43.27569" lon="-1.71294">
        <ele>38</ele>
        <time>2010-01-01T00:19:42Z</time>
      </trkpt>
      <trkpt lat="43.27553" lon="-1.71286">
        <ele>38</ele>
        <time>2010-01-01T00:19:49Z</time>
      </trkpt>
      <trkpt lat="43.27539" lon="-1.71272">
        <ele>36</ele>
        <time>2010-01-01T00:19:55Z</time>
      </trkpt>
      <trkpt lat="43.27531" lon="-1.71264">
        <ele>35</ele>
        <time>2010-01-01T00:19:59Z</time>
      </trkpt>
      <trkpt lat="43.27526" lon="-1.71259">
        <ele>35</ele>
        <time>2010-01-01T00:20:02Z</time>
      </trkpt>
      <trkpt lat="43.2752" lon="-1.71254">
        <ele>36</ele>
        <time>2010-01-01T00:20:05Z</time>
      </trkpt>
      <trkpt lat="43.27505" lon="-1.7123">
        <ele>38</ele>
        <time>2010-01-01T00:20:14Z</time>
      </trkpt>
      <trkpt lat="43.27499" lon="-1.71214">
        <ele>39</ele>
        <time>2010-01-01T00:20:19Z</time>
      </trkpt>
      <trkpt lat="43.27495" lon="-1.71201">
        <ele>40</ele>
        <time>2010-01-01T00:20:23Z</time>
      </trkpt>
      <trkpt lat="43.27489" lon="-1.71179">
        <ele>40</ele>
        <time>2010-01-01T00:20:30Z</time>
      </trkpt>
      <trkpt lat="43.27482" lon="-1.71149">
        <ele>37</ele>
        <time>2010-01-01T00:20:39Z</time>
      </trkpt>
      <trkpt lat="43.27478" lon="-1.71131">
        <ele>36</ele>
        <time>2010-01-01T00:20:45Z</time>
      </trkpt>
      <trkpt lat="43.27471" lon="-1.71115">
        <ele>35</ele>
        <time>2010-01-01T00:20:50Z</time>
      </trkpt>
      <trkpt lat="43.27462" lon="-1.71098">
        <ele>35</ele>
        <time>2010-01-01T00:20:56Z</time>
      </trkpt>
      <trkpt lat="43.27455" lon="-1.71081">
        <ele>34</ele>
        <time>2010-01-01T00:21:02Z</time>
      </trkpt>
      <trkpt lat="43.27448" lon="-1.71056">
        <ele>34</ele>
        <time>2010-01-01T00:21:10Z</time>
      </trkpt>
      <trkpt lat="43.2744" lon="-1.7103">
        <ele>35</ele>
        <time>2010-01-01T00:21:18Z</time>
      </trkpt>
      <trkpt lat="43.27427" lon="-1.70979">
        <ele>36</ele>
        <time>2010-01-01T00:21:34Z</time>
      </trkpt>
      <trkpt lat="43.27424" lon="-1.70958">
        <ele>37</ele>
        <time>2010-01-01T00:21:40Z</time>
      </trkpt>
      <trkpt lat="43.27421" lon="-1.70942">
        <ele>39</ele>
        <time>2010-01-01T00:21:45Z</time>
      </trkpt>
      <trkpt lat="43.27416" lon="-1.70921">
        <ele>41</ele>
        <time>2010-01-01T00:21:51Z</time>
      </trkpt>
      <trkpt lat="43.27413" lon="-1.7091">
        <ele>42</ele>
        <time>2010-01-01T00:21:55Z</time>
      </trkpt>
      <trkpt lat="43.27408" lon="-1.70897">
        <ele>45</ele>
        <time>2010-01-01T00:21:59Z</time>
      </trkpt>
      <trkpt lat="43.27412" lon="-1.70865">
        <ele>43</ele>
        <time>2010-01-01T00:22:08Z</time>
      </trkpt>
      <trkpt lat="43.27416" lon="-1.7083">
        <ele>44</ele>
        <time>2010-01-01T00:22:19Z</time>
      </trkpt>
      <trkpt lat="43.27418" lon="-1.70795">
        <ele>45</ele>
        <time>2010-01-01T00:22:29Z</time>
      </trkpt>
      <trkpt lat="43.27421" lon="-1.70772">
        <ele>44</ele>
        <time>2010-01-01T00:22:36Z</time>
      </trkpt>
      <trkpt lat="43.27422" lon="-1.70767">
        <ele>44</ele>
        <time>2010-01-01T00:22:37Z</time>
      </trkpt>
      <trkpt lat="43.27423" lon="-1.70742">
        <ele>43</ele>
        <time>2010-01-01T00:22:45Z</time>
      </trkpt>
      <trkpt lat="43.27425" lon="-1.70721">
        <ele>43</ele>
        <time>2010-01-01T00:22:51Z</time>
      </trkpt>
      <trkpt lat="43.27427" lon="-1.70698">
        <ele>42</ele>
        <time>2010-01-01T00:22:58Z</time>
      </trkpt>
      <trkpt lat="43.27431" lon="-1.7067">
        <ele>39</ele>
        <time>2010-01-01T00:23:06Z</time>
      </trkpt>
      <trkpt lat="43.27432" lon="-1.70646">
        <ele>38</ele>
        <time>2010-01-01T00:23:13Z</time>
      </trkpt>
      <trkpt lat="43.27432" lon="-1.70637">
        <ele>37</ele>
        <time>2010-01-01T00:23:16Z</time>
      </trkpt>
      <trkpt lat="43.27432" lon="-1.70603">
        <ele>37</ele>
        <time>2010-01-01T00:23:25Z</time>
      </trkpt>
      <trkpt lat="43.27431" lon="-1.70564">
        <ele>38</ele>
        <time>2010-01-01T00:23:37Z</time>
      </trkpt>
      <trkpt lat="43.27433" lon="-1.70556">
        <ele>37</ele>
        <time>2010-01-01T00:23:39Z</time>
      </trkpt>
      <trkpt lat="43.27444" lon="-1.70528">
        <ele>34</ele>
        <time>2010-01-01T00:23:49Z</time>
      </trkpt>
      <trkpt lat="43.27452" lon="-1.7048">
        <ele>35</ele>
        <time>2010-01-01T00:24:03Z</time>
      </trkpt>
      <trkpt lat="43.27453" lon="-1.70467">
        <ele>36</ele>
        <time>2010-01-01T00:24:07Z</time>
      </trkpt>
      <trkpt lat="43.27456" lon="-1.70439">
        <ele>38</ele>
        <time>2010-01-01T00:24:15Z</time>
      </trkpt>
      <trkpt lat="43.27461" lon="-1.704">
        <ele>37</ele>
        <time>2010-01-01T00:24:26Z</time>
      </trkpt>
      <trkpt lat="43.27472" lon="-1.7031">
        <ele>36</ele>
        <time>2010-01-01T00:24:53Z</time>
      </trkpt>
      <trkpt lat="43.27474" lon="-1.7028">
        <ele>37</ele>
        <time>2010-01-01T00:25:02Z</time>
      </trkpt>
      <trkpt lat="43.27475" lon="-1.70261">
        <ele>40</ele>
        <time>2010-01-01T00:25:08Z</time>
      </trkpt>
      <trkpt lat="43.27476" lon="-1.70251">
        <ele>41</ele>
        <time>2010-01-01T00:25:10Z</time>
      </trkpt>
      <trkpt lat="43.27489" lon="-1.70082">
        <ele>50</ele>
        <time>2010-01-01T00:26:00Z</time>
      </trkpt>
      <trkpt lat="43.27495" lon="-1.70031">
        <ele>45</ele>
        <time>2010-01-01T00:26:15Z</time>
      </trkpt>
      <trkpt lat="43.27497" lon="-1.70001">
        <ele>41</ele>
        <time>2010-01-01T00:26:24Z</time>
      </trkpt>
      <trkpt lat="43.275" lon="-1.69869">
        <ele>43</ele>
        <time>2010-01-01T00:27:02Z</time>
      </trkpt>
      <trkpt lat="43.275" lon="-1.6986">
        <ele>44</ele>
        <time>2010-01-01T00:27:05Z</time>
      </trkpt>
      <trkpt lat="43.27499" lon="-1.69828">
        <ele>48</ele>
        <time>2010-01-01T00:27:14Z</time>
      </trkpt>
      <trkpt lat="43.27506" lon="-1.69792">
        <ele>48</ele>
        <time>2010-01-01T00:27:25Z</time>
      </trkpt>
      <trkpt lat="43.27514" lon="-1.69761">
        <ele>47</ele>
        <time>2010-01-01T00:27:35Z</time>
      </trkpt>
      <trkpt lat="43.27521" lon="-1.69741">
        <ele>42</ele>
        <time>2010-01-01T00:27:41Z</time>
      </trkpt>
      <trkpt lat="43.27531" lon="-1.69708">
        <ele>37</ele>
        <time>2010-01-01T00:27:52Z</time>
      </trkpt>
      <trkpt lat="43.27536" lon="-1.6969">
        <ele>38</ele>
        <time>2010-01-01T00:27:57Z</time>
      </trkpt>
      <trkpt lat="43.2755" lon="-1.69638">
        <ele>37</ele>
        <time>2010-01-01T00:28:13Z</time>
      </trkpt>
      <trkpt lat="43.27569" lon="-1.69602">
        <ele>37</ele>
        <time>2010-01-01T00:28:26Z</time>
      </trkpt>
      <trkpt lat="43.27578" lon="-1.69591">
        <ele>36</ele>
        <time>2010-01-01T00:28:31Z</time>
      </trkpt>
      <trkpt lat="43.27592" lon="-1.69574">
        <ele>36</ele>
        <time>2010-01-01T00:28:39Z</time>
      </trkpt>
      <trkpt lat="43.27613" lon="-1.69548">
        <ele>36</ele>
        <time>2010-01-01T00:28:50Z</time>
      </trkpt>
      <trkpt lat="43.27651" lon="-1.69513">
        <ele>36</ele>
        <time>2010-01-01T00:29:08Z</time>
      </trkpt>
      <trkpt lat="43.27668" lon="-1.69502">
        <ele>36</ele>
        <time>2010-01-01T00:29:16Z</time>
      </trkpt>
      <trkpt lat="43.27683" lon="-1.69489">
        <ele>37</ele>
        <time>2010-01-01T00:29:23Z</time>
      </trkpt>
      <trkpt lat="43.2773" lon="-1.69452">
        <ele>33</ele>
        <time>2010-01-01T00:29:45Z</time>
      </trkpt>
      <trkpt lat="43.27739" lon="-1.69444">
        <ele>33</ele>
        <time>2010-01-01T00:29:49Z</time>
      </trkpt>
      <trkpt lat="43.27771" lon="-1.69418">
        <ele>36</ele>
        <time>2010-01-01T00:30:04Z</time>
      </trkpt>
      <trkpt lat="43.27786" lon="-1.69407">
        <ele>38</ele>
        <time>2010-01-01T00:30:11Z</time>
      </trkpt>
      <trkpt lat="43.27804" lon="-1.69389">
        <ele>39</ele>
        <time>2010-01-01T00:30:20Z</time>
      </trkpt>
      <trkpt lat="43.2782" lon="-1.69369">
        <ele>40</ele>
        <time>2010-01-01T00:30:28Z</time>
      </trkpt>
      <trkpt lat="43.27833" lon="-1.69345">
        <ele>40</ele>
        <time>2010-01-01T00:30:37Z</time>
      </trkpt>
      <trkpt lat="43.27843" lon="-1.6932">
        <ele>41</ele>
        <time>2010-01-01T00:30:45Z</time>
      </trkpt>
      <trkpt lat="43.27849" lon="-1.69299">
        <ele>41</ele>
        <time>2010-01-01T00:30:52Z</time>
      </trkpt>
      <trkpt lat="43.27852" lon="-1.69276">
        <ele>40</ele>
        <time>2010-01-01T00:30:59Z</time>
      </trkpt>
      <trkpt lat="43.27852" lon="-1.69228">
        <ele>39</ele>
        <time>2010-01-01T00:31:12Z</time>
      </trkpt>
      <trkpt lat="43.2785" lon="-1.69207">
        <ele>40</ele>
        <time>2010-01-01T00:31:19Z</time>
      </trkpt>
      <trkpt lat="43.27844" lon="-1.69181">
        <ele>41</ele>
        <time>2010-01-01T00:31:27Z</time>
      </trkpt>
      <trkpt lat="43.27839" lon="-1.69164">
        <ele>41</ele>
        <time>2010-01-01T00:31:32Z</time>
      </trkpt>
      <trkpt lat="43.27816" lon="-1.69119">
        <ele>42</ele>
        <time>2010-01-01T00:31:48Z</time>
      </trkpt>
      <trkpt lat="43.27799" lon="-1.69098">
        <ele>44</ele>
        <time>2010-01-01T00:31:57Z</time>
      </trkpt>
      <trkpt lat="43.27776" lon="-1.6908">
        <ele>43</ele>
        <time>2010-01-01T00:32:08Z</time>
      </trkpt>
      <trkpt lat="43.27769" lon="-1.69076">
        <ele>43</ele>
        <time>2010-01-01T00:32:11Z</time>
      </trkpt>
      <trkpt lat="43.27748" lon="-1.69067">
        <ele>41</ele>
        <time>2010-01-01T00:32:20Z</time>
      </trkpt>
      <trkpt lat="43.27732" lon="-1.69064">
        <ele>39</ele>
        <time>2010-01-01T00:32:26Z</time>
      </trkpt>
      <trkpt lat="43.27707" lon="-1.69064">
        <ele>38</ele>
        <time>2010-01-01T00:32:36Z</time>
      </trkpt>
      <trkpt lat="43.27685" lon="-1.69067">
        <ele>41</ele>
        <time>2010-01-01T00:32:45Z</time>
      </trkpt>
      <trkpt lat="43.27665" lon="-1.69065">
        <ele>45</ele>
        <time>2010-01-01T00:32:53Z</time>
      </trkpt>
      <trkpt lat="43.27641" lon="-1.69061">
        <ele>47</ele>
        <time>2010-01-01T00:33:03Z</time>
      </trkpt>
      <trkpt lat="43.27591" lon="-1.69056">
        <ele>42</ele>
        <time>2010-01-01T00:33:23Z</time>
      </trkpt>
      <trkpt lat="43.27545" lon="-1.69053">
        <ele>39</ele>
        <time>2010-01-01T00:33:41Z</time>
      </trkpt>
      <trkpt lat="43.27528" lon="-1.69053">
        <ele>39</ele>
        <time>2010-01-01T00:33:48Z</time>
      </trkpt>
      <trkpt lat="43.27519" lon="-1.69056">
        <ele>40</ele>
        <time>2010-01-01T00:33:52Z</time>
      </trkpt>
      <trkpt lat="43.275" lon="-1.69069">
        <ele>40</ele>
        <time>2010-01-01T00:34:00Z</time>
      </trkpt>
      <trkpt lat="43.27486" lon="-1.69073">
        <ele>40</ele>
        <time>2010-01-01T00:34:06Z</time>
      </trkpt>
      <trkpt lat="43.27456" lon="-1.69072">
        <ele>40</ele>
        <time>2010-01-01T00:34:18Z</time>
      </trkpt>
      <trkpt lat="43.27419" lon="-1.69072">
        <ele>39</ele>
        <time>2010-01-01T00:34:33Z</time>
      </trkpt>
      <trkpt lat="43.27403" lon="-1.69075">
        <ele>39</ele>
        <time>2010-01-01T00:34:39Z</time>
      </trkpt>
      <trkpt lat="43.2739" lon="-1.69081">
        <ele>39</ele>
        <time>2010-01-01T00:34:45Z</time>
      </trkpt>
      <trkpt lat="43.27383" lon="-1.69088">
        <ele>40</ele>
        <time>2010-01-01T00:34:48Z</time>
      </trkpt>
      <trkpt lat="43.27379" lon="-1.69093">
        <ele>41</ele>
        <time>2010-01-01T00:34:50Z</time>
      </trkpt>
      <trkpt lat="43.27368" lon="-1.69089">
        <ele>42</ele>
        <time>2010-01-01T00:34:55Z</time>
      </trkpt>
      <trkpt lat="43.27353" lon="-1.69073">
        <ele>42</ele>
        <time>2010-01-01T00:35:02Z</time>
      </trkpt>
      <trkpt lat="43.27333" lon="-1.69055">
        <ele>43</ele>
        <time>2010-01-01T00:35:12Z</time>
      </trkpt>
      <trkpt lat="43.27304" lon="-1.69035">
        <ele>43</ele>
        <time>2010-01-01T00:35:25Z</time>
      </trkpt>
      <trkpt lat="43.27282" lon="-1.69015">
        <ele>41</ele>
        <time>2010-01-01T00:35:35Z</time>
      </trkpt>
      <trkpt lat="43.27262" lon="-1.69001">
        <ele>39</ele>
        <time>2010-01-01T00:35:45Z</time>
      </trkpt>
      <trkpt lat="43.27253" lon="-1.68996">
        <ele>39</ele>
        <time>2010-01-01T00:35:49Z</time>
      </trkpt>
      <trkpt lat="43.27231" lon="-1.68986">
        <ele>38</ele>
        <time>2010-01-01T00:35:58Z</time>
      </trkpt>
      <trkpt lat="43.27215" lon="-1.68966">
        <ele>38</ele>
        <time>2010-01-01T00:36:06Z</time>
      </trkpt>
      <trkpt lat="43.27181" lon="-1.68934">
        <ele>37</ele>
        <time>2010-01-01T00:36:23Z</time>
      </trkpt>
      <trkpt lat="43.27155" lon="-1.6891">
        <ele>38</ele>
        <time>2010-01-01T00:36:35Z</time>
      </trkpt>
      <trkpt lat="43.27135" lon="-1.68891">
        <ele>38</ele>
        <time>2010-01-01T00:36:45Z</time>
      </trkpt>
      <trkpt lat="43.27107" lon="-1.68865">
        <ele>36</ele>
        <time>2010-01-01T00:36:58Z</time>
      </trkpt>
      <trkpt lat="43.27083" lon="-1.68851">
        <ele>36</ele>
        <time>2010-01-01T00:37:09Z</time>
      </trkpt>
      <trkpt lat="43.2707" lon="-1.68842">
        <ele>36</ele>
        <time>2010-01-01T00:37:15Z</time>
      </trkpt>
      <trkpt lat="43.27045" lon="-1.68828">
        <ele>37</ele>
        <time>2010-01-01T00:37:26Z</time>
      </trkpt>
      <trkpt lat="43.27026" lon="-1.68823">
        <ele>39</ele>
        <time>2010-01-01T00:37:33Z</time>
      </trkpt>
      <trkpt lat="43.27009" lon="-1.68809">
        <ele>42</ele>
        <time>2010-01-01T00:37:41Z</time>
      </trkpt>
      <trkpt lat="43.27" lon="-1.68801">
        <ele>43</ele>
        <time>2010-01-01T00:37:45Z</time>
      </trkpt>
      <trkpt lat="43.26988" lon="-1.68786">
        <ele>46</ele>
        <time>2010-01-01T00:37:52Z</time>
      </trkpt>
      <trkpt lat="43.26978" lon="-1.68771">
        <ele>49</ele>
        <time>2010-01-01T00:37:58Z</time>
      </trkpt>
      <trkpt lat="43.26968" lon="-1.6875">
        <ele>52</ele>
        <time>2010-01-01T00:38:06Z</time>
      </trkpt>
      <trkpt lat="43.2696" lon="-1.68718">
        <ele>51</ele>
        <time>2010-01-01T00:38:15Z</time>
      </trkpt>
      <trkpt lat="43.26958" lon="-1.687">
        <ele>49</ele>
        <time>2010-01-01T00:38:21Z</time>
      </trkpt>
      <trkpt lat="43.26948" lon="-1.68655">
        <ele>48</ele>
        <time>2010-01-01T00:38:34Z</time>
      </trkpt>
      <trkpt lat="43.26933" lon="-1.68591">
        <ele>43</ele>
        <time>2010-01-01T00:38:54Z</time>
      </trkpt>
      <trkpt lat="43.26926" lon="-1.68556">
        <ele>45</ele>
        <time>2010-01-01T00:39:05Z</time>
      </trkpt>
      <trkpt lat="43.26918" lon="-1.68535">
        <ele>49</ele>
        <time>2010-01-01T00:39:11Z</time>
      </trkpt>
      <trkpt lat="43.26907" lon="-1.68512">
        <ele>51</ele>
        <time>2010-01-01T00:39:19Z</time>
      </trkpt>
      <trkpt lat="43.26891" lon="-1.68491">
        <ele>50</ele>
        <time>2010-01-01T00:39:28Z</time>
      </trkpt>
      <trkpt lat="43.26875" lon="-1.68481">
        <ele>47</ele>
        <time>2010-01-01T00:39:35Z</time>
      </trkpt>
      <trkpt lat="43.26857" lon="-1.68468">
        <ele>43</ele>
        <time>2010-01-01T00:39:43Z</time>
      </trkpt>
      <trkpt lat="43.26838" lon="-1.68463">
        <ele>40</ele>
        <time>2010-01-01T00:39:51Z</time>
      </trkpt>
      <trkpt lat="43.26816" lon="-1.68462">
        <ele>40</ele>
        <time>2010-01-01T00:40:00Z</time>
      </trkpt>
      <trkpt lat="43.26791" lon="-1.6847">
        <ele>42</ele>
        <time>2010-01-01T00:40:10Z</time>
      </trkpt>
      <trkpt lat="43.26737" lon="-1.68506">
        <ele>44</ele>
        <time>2010-01-01T00:40:34Z</time>
      </trkpt>
      <trkpt lat="43.26701" lon="-1.68531">
        <ele>47</ele>
        <time>2010-01-01T00:40:50Z</time>
      </trkpt>
      <trkpt lat="43.26673" lon="-1.68551">
        <ele>48</ele>
        <time>2010-01-01T00:41:03Z</time>
      </trkpt>
      <trkpt lat="43.26625" lon="-1.68585">
        <ele>46</ele>
        <time>2010-01-01T00:41:25Z</time>
      </trkpt>
      <trkpt lat="43.26615" lon="-1.68598">
        <ele>46</ele>
        <time>2010-01-01T00:41:30Z</time>
      </trkpt>
      <trkpt lat="43.26572" lon="-1.68646">
        <ele>51</ele>
        <time>2010-01-01T00:41:52Z</time>
      </trkpt>
      <trkpt lat="43.26536" lon="-1.68683">
        <ele>60</ele>
        <time>2010-01-01T00:42:11Z</time>
      </trkpt>
      <trkpt lat="43.26512" lon="-1.68707">
        <ele>64</ele>
        <time>2010-01-01T00:42:22Z</time>
      </trkpt>
      <trkpt lat="43.26476" lon="-1.68736">
        <ele>67</ele>
        <time>2010-01-01T00:42:39Z</time>
      </trkpt>
      <trkpt lat="43.26451" lon="-1.68749">
        <ele>67</ele>
        <time>2010-01-01T00:42:50Z</time>
      </trkpt>
      <trkpt lat="43.26426" lon="-1.68758">
        <ele>66</ele>
        <time>2010-01-01T00:43:00Z</time>
      </trkpt>
      <trkpt lat="43.26403" lon="-1.68761">
        <ele>69</ele>
        <time>2010-01-01T00:43:09Z</time>
      </trkpt>
      <trkpt lat="43.26368" lon="-1.68762">
        <ele>71</ele>
        <time>2010-01-01T00:43:23Z</time>
      </trkpt>
      <trkpt lat="43.26335" lon="-1.68753">
        <ele>62</ele>
        <time>2010-01-01T00:43:37Z</time>
      </trkpt>
      <trkpt lat="43.26267" lon="-1.68719">
        <ele>63</ele>
        <time>2010-01-01T00:44:06Z</time>
      </trkpt>
      <trkpt lat="43.26213" lon="-1.68671">
        <ele>56</ele>
        <time>2010-01-01T00:44:31Z</time>
      </trkpt>
      <trkpt lat="43.26154" lon="-1.68602">
        <ele>60</ele>
        <time>2010-01-01T00:45:03Z</time>
      </trkpt>
      <trkpt lat="43.26119" lon="-1.68538">
        <ele>61</ele>
        <time>2010-01-01T00:45:26Z</time>
      </trkpt>
      <trkpt lat="43.26092" lon="-1.68481">
        <ele>59</ele>
        <time>2010-01-01T00:45:46Z</time>
      </trkpt>
      <trkpt lat="43.26072" lon="-1.68443">
        <ele>60</ele>
        <time>2010-01-01T00:45:59Z</time>
      </trkpt>
      <trkpt lat="43.26059" lon="-1.68411">
        <ele>57</ele>
        <time>2010-01-01T00:46:10Z</time>
      </trkpt>
      <trkpt lat="43.26043" lon="-1.68379">
        <ele>60</ele>
        <time>2010-01-01T00:46:21Z</time>
      </trkpt>
      <trkpt lat="43.26028" lon="-1.68338">
        <ele>61</ele>
        <time>2010-01-01T00:46:35Z</time>
      </trkpt>
      <trkpt lat="43.26022" lon="-1.68298">
        <ele>62</ele>
        <time>2010-01-01T00:46:47Z</time>
      </trkpt>
      <trkpt lat="43.26022" lon="-1.68269">
        <ele>61</ele>
        <time>2010-01-01T00:46:55Z</time>
      </trkpt>
      <trkpt lat="43.26023" lon="-1.68224">
        <ele>62</ele>
        <time>2010-01-01T00:47:08Z</time>
      </trkpt>
      <trkpt lat="43.26028" lon="-1.68172">
        <ele>61</ele>
        <time>2010-01-01T00:47:24Z</time>
      </trkpt>
      <trkpt lat="43.26032" lon="-1.68151">
        <ele>57</ele>
        <time>2010-01-01T00:47:30Z</time>
      </trkpt>
      <trkpt lat="43.2604" lon="-1.68104">
        <ele>50</ele>
        <time>2010-01-01T00:47:44Z</time>
      </trkpt>
      <trkpt lat="43.26031" lon="-1.68078">
        <ele>53</ele>
        <time>2010-01-01T00:47:53Z</time>
      </trkpt>
      <trkpt lat="43.26006" lon="-1.6804">
        <ele>53</ele>
        <time>2010-01-01T00:48:07Z</time>
      </trkpt>
      <trkpt lat="43.25993" lon="-1.68014">
        <ele>50</ele>
        <time>2010-01-01T00:48:17Z</time>
      </trkpt>
      <trkpt lat="43.25986" lon="-1.68014">
        <ele>51</ele>
        <time>2010-01-01T00:48:19Z</time>
      </trkpt>
      <trkpt lat="43.25973" lon="-1.68016">
        <ele>53</ele>
        <time>2010-01-01T00:48:25Z</time>
      </trkpt>
      <trkpt lat="43.25967" lon="-1.68014">
        <ele>53</ele>
        <time>2010-01-01T00:48:27Z</time>
      </trkpt>
      <trkpt lat="43.25959" lon="-1.68011">
        <ele>53</ele>
        <time>2010-01-01T00:48:30Z</time>
      </trkpt>
      <trkpt lat="43.25948" lon="-1.68003">
        <ele>50</ele>
        <time>2010-01-01T00:48:35Z</time>
      </trkpt>
      <trkpt lat="43.25921" lon="-1.67999">
        <ele>52</ele>
        <time>2010-01-01T00:48:47Z</time>
      </trkpt>
      <trkpt lat="43.25882" lon="-1.68007">
        <ele>51</ele>
        <time>2010-01-01T00:49:02Z</time>
      </trkpt>
      <trkpt lat="43.25847" lon="-1.68024">
        <ele>53</ele>
        <time>2010-01-01T00:49:17Z</time>
      </trkpt>
      <trkpt lat="43.258" lon="-1.68053">
        <ele>60</ele>
        <time>2010-01-01T00:49:38Z</time>
      </trkpt>
      <trkpt lat="43.25789" lon="-1.6806">
        <ele>60</ele>
        <time>2010-01-01T00:49:43Z</time>
      </trkpt>
      <trkpt lat="43.25756" lon="-1.68076">
        <ele>58</ele>
        <time>2010-01-01T00:49:57Z</time>
      </trkpt>
      <trkpt lat="43.25727" lon="-1.68088">
        <ele>57</ele>
        <time>2010-01-01T00:50:09Z</time>
      </trkpt>
      <trkpt lat="43.2569" lon="-1.68099">
        <ele>57</ele>
        <time>2010-01-01T00:50:24Z</time>
      </trkpt>
      <trkpt lat="43.25665" lon="-1.68106">
        <ele>58</ele>
        <time>2010-01-01T00:50:34Z</time>
      </trkpt>
      <trkpt lat="43.25638" lon="-1.68123">
        <ele>60</ele>
        <time>2010-01-01T00:50:46Z</time>
      </trkpt>
      <trkpt lat="43.256" lon="-1.68143">
        <ele>58</ele>
        <time>2010-01-01T00:51:02Z</time>
      </trkpt>
      <trkpt lat="43.2558" lon="-1.68152">
        <ele>57</ele>
        <time>2010-01-01T00:51:11Z</time>
      </trkpt>
      <trkpt lat="43.25548" lon="-1.68154">
        <ele>54</ele>
        <time>2010-01-01T00:51:23Z</time>
      </trkpt>
      <trkpt lat="43.25536" lon="-1.68149">
        <ele>52</ele>
        <time>2010-01-01T00:51:29Z</time>
      </trkpt>
      <trkpt lat="43.25521" lon="-1.68141">
        <ele>50</ele>
        <time>2010-01-01T00:51:35Z</time>
      </trkpt>
      <trkpt lat="43.25507" lon="-1.68132">
        <ele>50</ele>
        <time>2010-01-01T00:51:41Z</time>
      </trkpt>
      <trkpt lat="43.25494" lon="-1.68125">
        <ele>50</ele>
        <time>2010-01-01T00:51:47Z</time>
      </trkpt>
      <trkpt lat="43.25484" lon="-1.68123">
        <ele>50</ele>
        <time>2010-01-01T00:51:51Z</time>
      </trkpt>
      <trkpt lat="43.25476" lon="-1.68123">
        <ele>49</ele>
        <time>2010-01-01T00:51:54Z</time>
      </trkpt>
      <trkpt lat="43.25471" lon="-1.68132">
        <ele>50</ele>
        <time>2010-01-01T00:51:57Z</time>
      </trkpt>
      <trkpt lat="43.25463" lon="-1.68146">
        <ele>50</ele>
        <time>2010-01-01T00:52:02Z</time>
      </trkpt>
      <trkpt lat="43.25431" lon="-1.68149">
        <ele>50</ele>
        <time>2010-01-01T00:52:15Z</time>
      </trkpt>
      <trkpt lat="43.25413" lon="-1.68151">
        <ele>50</ele>
        <time>2010-01-01T00:52:22Z</time>
      </trkpt>
      <trkpt lat="43.25385" lon="-1.68154">
        <ele>52</ele>
        <time>2010-01-01T00:52:34Z</time>
      </trkpt>
      <trkpt lat="43.25358" lon="-1.68154">
        <ele>57</ele>
        <time>2010-01-01T00:52:45Z</time>
      </trkpt>
      <trkpt lat="43.25306" lon="-1.68154">
        <ele>69</ele>
        <time>2010-01-01T00:53:05Z</time>
      </trkpt>
      <trkpt lat="43.25291" lon="-1.6815">
        <ele>69</ele>
        <time>2010-01-01T00:53:11Z</time>
      </trkpt>
      <trkpt lat="43.2528" lon="-1.68148">
        <ele>68</ele>
        <time>2010-01-01T00:53:16Z</time>
      </trkpt>
      <trkpt lat="43.25265" lon="-1.68143">
        <ele>67</ele>
        <time>2010-01-01T00:53:22Z</time>
      </trkpt>
      <trkpt lat="43.25248" lon="-1.6814">
        <ele>68</ele>
        <time>2010-01-01T00:53:29Z</time>
      </trkpt>
      <trkpt lat="43.25234" lon="-1.68135">
        <ele>71</ele>
        <time>2010-01-01T00:53:35Z</time>
      </trkpt>
      <trkpt lat="43.25216" lon="-1.68129">
        <ele>74</ele>
        <time>2010-01-01T00:53:42Z</time>
      </trkpt>
      <trkpt lat="43.25198" lon="-1.68122">
        <ele>75</ele>
        <time>2010-01-01T00:53:50Z</time>
      </trkpt>
      <trkpt lat="43.25192" lon="-1.68119">
        <ele>75</ele>
        <time>2010-01-01T00:53:52Z</time>
      </trkpt>
      <trkpt lat="43.25179" lon="-1.68113">
        <ele>75</ele>
        <time>2010-01-01T00:53:58Z</time>
      </trkpt>
      <trkpt lat="43.25165" lon="-1.68105">
        <ele>74</ele>
        <time>2010-01-01T00:54:04Z</time>
      </trkpt>
      <trkpt lat="43.25152" lon="-1.68094">
        <ele>69</ele>
        <time>2010-01-01T00:54:10Z</time>
      </trkpt>
      <trkpt lat="43.25139" lon="-1.68082">
        <ele>65</ele>
        <time>2010-01-01T00:54:16Z</time>
      </trkpt>
      <trkpt lat="43.25128" lon="-1.68067">
        <ele>65</ele>
        <time>2010-01-01T00:54:22Z</time>
      </trkpt>
      <trkpt lat="43.25119" lon="-1.68051">
        <ele>63</ele>
        <time>2010-01-01T00:54:28Z</time>
      </trkpt>
      <trkpt lat="43.2511" lon="-1.68033">
        <ele>62</ele>
        <time>2010-01-01T00:54:35Z</time>
      </trkpt>
      <trkpt lat="43.25104" lon="-1.68017">
        <ele>61</ele>
        <time>2010-01-01T00:54:40Z</time>
      </trkpt>
      <trkpt lat="43.25099" lon="-1.67995">
        <ele>58</ele>
        <time>2010-01-01T00:54:47Z</time>
      </trkpt>
      <trkpt lat="43.25096" lon="-1.67979">
        <ele>56</ele>
        <time>2010-01-01T00:54:52Z</time>
      </trkpt>
      <trkpt lat="43.25093" lon="-1.67953">
        <ele>56</ele>
        <time>2010-01-01T00:54:59Z</time>
      </trkpt>
      <trkpt lat="43.2509" lon="-1.67936">
        <ele>56</ele>
        <time>2010-01-01T00:55:04Z</time>
      </trkpt>
      <trkpt lat="43.25088" lon="-1.67915">
        <ele>57</ele>
        <time>2010-01-01T00:55:10Z</time>
      </trkpt>
      <trkpt lat="43.25085" lon="-1.67892">
        <ele>56</ele>
        <time>2010-01-01T00:55:17Z</time>
      </trkpt>
      <trkpt lat="43.2508" lon="-1.67876">
        <ele>55</ele>
        <time>2010-01-01T00:55:22Z</time>
      </trkpt>
      <trkpt lat="43.25078" lon="-1.67851">
        <ele>54</ele>
        <time>2010-01-01T00:55:30Z</time>
      </trkpt>
      <trkpt lat="43.25068" lon="-1.6779">
        <ele>53</ele>
        <time>2010-01-01T00:55:48Z</time>
      </trkpt>
      <trkpt lat="43.25062" lon="-1.6774">
        <ele>51</ele>
        <time>2010-01-01T00:56:03Z</time>
      </trkpt>
      <trkpt lat="43.25056" lon="-1.67701">
        <ele>50</ele>
        <time>2010-01-01T00:56:14Z</time>
      </trkpt>
      <trkpt lat="43.2505" lon="-1.6766">
        <ele>52</ele>
        <time>2010-01-01T00:56:26Z</time>
      </trkpt>
      <trkpt lat="43.25044" lon="-1.67615">
        <ele>53</ele>
        <time>2010-01-01T00:56:40Z</time>
      </trkpt>
      <trkpt lat="43.25035" lon="-1.67556">
        <ele>50</ele>
        <time>2010-01-01T00:56:57Z</time>
      </trkpt>
      <trkpt lat="43.25031" lon="-1.67534">
        <ele>49</ele>
        <time>2010-01-01T00:57:04Z</time>
      </trkpt>
      <trkpt lat="43.25025" lon="-1.67495">
        <ele>48</ele>
        <time>2010-01-01T00:57:15Z</time>
      </trkpt>
      <trkpt lat="43.2502" lon="-1.67461">
        <ele>48</ele>
        <time>2010-01-01T00:57:25Z</time>
      </trkpt>
      <trkpt lat="43.25012" lon="-1.67425">
        <ele>48</ele>
        <time>2010-01-01T00:57:36Z</time>
      </trkpt>
      <trkpt lat="43.25005" lon="-1.67406">
        <ele>48</ele>
        <time>2010-01-01T00:57:43Z</time>
      </trkpt>
      <trkpt lat="43.24997" lon="-1.67387">
        <ele>50</ele>
        <time>2010-01-01T00:57:49Z</time>
      </trkpt>
      <trkpt lat="43.24994" lon="-1.67382">
        <ele>50</ele>
        <time>2010-01-01T00:57:51Z</time>
      </trkpt>
      <trkpt lat="43.24984" lon="-1.67365">
        <ele>49</ele>
        <time>2010-01-01T00:57:57Z</time>
      </trkpt>
      <trkpt lat="43.24971" lon="-1.67345">
        <ele>49</ele>
        <time>2010-01-01T00:58:05Z</time>
      </trkpt>
      <trkpt lat="43.24957" lon="-1.67325">
        <ele>51</ele>
        <time>2010-01-01T00:58:13Z</time>
      </trkpt>
      <trkpt lat="43.24941" lon="-1.67305">
        <ele>51</ele>
        <time>2010-01-01T00:58:22Z</time>
      </trkpt>
      <trkpt lat="43.24922" lon="-1.67279">
        <ele>51</ele>
        <time>2010-01-01T00:58:33Z</time>
      </trkpt>
      <trkpt lat="43.24909" lon="-1.6726">
        <ele>56</ele>
        <time>2010-01-01T00:58:40Z</time>
      </trkpt>
      <trkpt lat="43.24894" lon="-1.67241">
        <ele>57</ele>
        <time>2010-01-01T00:58:48Z</time>
      </trkpt>
      <trkpt lat="43.2487" lon="-1.67208">
        <ele>57</ele>
        <time>2010-01-01T00:59:02Z</time>
      </trkpt>
      <trkpt lat="43.24857" lon="-1.67189">
        <ele>56</ele>
        <time>2010-01-01T00:59:10Z</time>
      </trkpt>
      <trkpt lat="43.24838" lon="-1.6717">
        <ele>61</ele>
        <time>2010-01-01T00:59:19Z</time>
      </trkpt>
      <trkpt lat="43.24822" lon="-1.67156">
        <ele>63</ele>
        <time>2010-01-01T00:59:27Z</time>
      </trkpt>
      <trkpt lat="43.24814" lon="-1.67152">
        <ele>65</ele>
        <time>2010-01-01T00:59:30Z</time>
      </trkpt>
      <trkpt lat="43.24809" lon="-1.6715">
        <ele>66</ele>
        <time>2010-01-01T00:59:32Z</time>
      </trkpt>
      <trkpt lat="43.24805" lon="-1.67148">
        <ele>67</ele>
        <time>2010-01-01T00:59:34Z</time>
      </trkpt>
      <trkpt lat="43.24798" lon="-1.67143">
        <ele>68</ele>
        <time>2010-01-01T00:59:37Z</time>
      </trkpt>
      <trkpt lat="43.2478" lon="-1.6713">
        <ele>69</ele>
        <time>2010-01-01T00:59:45Z</time>
      </trkpt>
      <trkpt lat="43.24754" lon="-1.67108">
        <ele>65</ele>
        <time>2010-01-01T00:59:57Z</time>
      </trkpt>
      <trkpt lat="43.24729" lon="-1.6709">
        <ele>60</ele>
        <time>2010-01-01T01:00:09Z</time>
      </trkpt>
      <trkpt lat="43.24706" lon="-1.67071">
        <ele>56</ele>
        <time>2010-01-01T01:00:19Z</time>
      </trkpt>
      <trkpt lat="43.24683" lon="-1.67054">
        <ele>54</ele>
        <time>2010-01-01T01:00:30Z</time>
      </trkpt>
      <trkpt lat="43.2466" lon="-1.67036">
        <ele>53</ele>
        <time>2010-01-01T01:00:41Z</time>
      </trkpt>
      <trkpt lat="43.24642" lon="-1.67022">
        <ele>53</ele>
        <time>2010-01-01T01:00:49Z</time>
      </trkpt>
      <trkpt lat="43.2462" lon="-1.67007">
        <ele>52</ele>
        <time>2010-01-01T01:00:58Z</time>
      </trkpt>
      <trkpt lat="43.24595" lon="-1.66989">
        <ele>52</ele>
        <time>2010-01-01T01:01:10Z</time>
      </trkpt>
      <trkpt lat="43.24579" lon="-1.66982">
        <ele>52</ele>
        <time>2010-01-01T01:01:17Z</time>
      </trkpt>
      <trkpt lat="43.24565" lon="-1.66978">
        <ele>52</ele>
        <time>2010-01-01T01:01:22Z</time>
      </trkpt>
      <trkpt lat="43.24548" lon="-1.66977">
        <ele>52</ele>
        <time>2010-01-01T01:01:29Z</time>
      </trkpt>
      <trkpt lat="43.24533" lon="-1.66979">
        <ele>52</ele>
        <time>2010-01-01T01:01:35Z</time>
      </trkpt>
      <trkpt lat="43.24532" lon="-1.66979">
        <ele>52</ele>
        <time>2010-01-01T01:01:35Z</time>
      </trkpt>
      <trkpt lat="43.24514" lon="-1.66984">
        <ele>52</ele>
        <time>2010-01-01T01:01:43Z</time>
      </trkpt>
      <trkpt lat="43.24491" lon="-1.66995">
        <ele>51</ele>
        <time>2010-01-01T01:01:52Z</time>
      </trkpt>
      <trkpt lat="43.2447" lon="-1.67013">
        <ele>52</ele>
        <time>2010-01-01T01:02:03Z</time>
      </trkpt>
      <trkpt lat="43.24456" lon="-1.67031">
        <ele>53</ele>
        <time>2010-01-01T01:02:10Z</time>
      </trkpt>
      <trkpt lat="43.24426" lon="-1.67076">
        <ele>54</ele>
        <time>2010-01-01T01:02:28Z</time>
      </trkpt>
      <trkpt lat="43.24406" lon="-1.67104">
        <ele>56</ele>
        <time>2010-01-01T01:02:39Z</time>
      </trkpt>
      <trkpt lat="43.24395" lon="-1.6712">
        <ele>56</ele>
        <time>2010-01-01T01:02:46Z</time>
      </trkpt>
      <trkpt lat="43.24375" lon="-1.6715">
        <ele>57</ele>
        <time>2010-01-01T01:02:58Z</time>
      </trkpt>
      <trkpt lat="43.24351" lon="-1.67184">
        <ele>57</ele>
        <time>2010-01-01T01:03:12Z</time>
      </trkpt>
      <trkpt lat="43.24327" lon="-1.67218">
        <ele>56</ele>
        <time>2010-01-01T01:03:25Z</time>
      </trkpt>
      <trkpt lat="43.24289" lon="-1.67274">
        <ele>57</ele>
        <time>2010-01-01T01:03:48Z</time>
      </trkpt>
      <trkpt lat="43.24252" lon="-1.67325">
        <ele>61</ele>
        <time>2010-01-01T01:04:09Z</time>
      </trkpt>
      <trkpt lat="43.2424" lon="-1.67342">
        <ele>62</ele>
        <time>2010-01-01T01:04:15Z</time>
      </trkpt>
      <trkpt lat="43.24231" lon="-1.67355">
        <ele>62</ele>
        <time>2010-01-01T01:04:21Z</time>
      </trkpt>
      <trkpt lat="43.24205" lon="-1.67395">
        <ele>64</ele>
        <time>2010-01-01T01:04:36Z</time>
      </trkpt>
      <trkpt lat="43.24194" lon="-1.67419">
        <ele>68</ele>
        <time>2010-01-01T01:04:45Z</time>
      </trkpt>
      <trkpt lat="43.24182" lon="-1.67443">
        <ele>68</ele>
        <time>2010-01-01T01:04:53Z</time>
      </trkpt>
      <trkpt lat="43.2417" lon="-1.67468">
        <ele>67</ele>
        <time>2010-01-01T01:05:02Z</time>
      </trkpt>
      <trkpt lat="43.24164" lon="-1.67479">
        <ele>66</ele>
        <time>2010-01-01T01:05:06Z</time>
      </trkpt>
      <trkpt lat="43.24155" lon="-1.67496">
        <ele>65</ele>
        <time>2010-01-01T01:05:12Z</time>
      </trkpt>
      <trkpt lat="43.24143" lon="-1.67516">
        <ele>64</ele>
        <time>2010-01-01T01:05:19Z</time>
      </trkpt>
      <trkpt lat="43.24134" lon="-1.67527">
        <ele>63</ele>
        <time>2010-01-01T01:05:24Z</time>
      </trkpt>
      <trkpt lat="43.24124" lon="-1.67535">
        <ele>62</ele>
        <time>2010-01-01T01:05:29Z</time>
      </trkpt>
      <trkpt lat="43.24112" lon="-1.67541">
        <ele>61</ele>
        <time>2010-01-01T01:05:34Z</time>
      </trkpt>
      <trkpt lat="43.24098" lon="-1.67548">
        <ele>62</ele>
        <time>2010-01-01T01:05:40Z</time>
      </trkpt>
      <trkpt lat="43.24085" lon="-1.67554">
        <ele>63</ele>
        <time>2010-01-01T01:05:46Z</time>
      </trkpt>
      <trkpt lat="43.2407" lon="-1.67558">
        <ele>64</ele>
        <time>2010-01-01T01:05:52Z</time>
      </trkpt>
      <trkpt lat="43.24054" lon="-1.67557">
        <ele>64</ele>
        <time>2010-01-01T01:05:58Z</time>
      </trkpt>
      <trkpt lat="43.24037" lon="-1.67555">
        <ele>65</ele>
        <time>2010-01-01T01:06:05Z</time>
      </trkpt>
      <trkpt lat="43.24031" lon="-1.67554">
        <ele>66</ele>
        <time>2010-01-01T01:06:07Z</time>
      </trkpt>
      <trkpt lat="43.24025" lon="-1.67552">
        <ele>66</ele>
        <time>2010-01-01T01:06:10Z</time>
      </trkpt>
      <trkpt lat="43.24017" lon="-1.67541">
        <ele>64</ele>
        <time>2010-01-01T01:06:14Z</time>
      </trkpt>
      <trkpt lat="43.24006" lon="-1.67532">
        <ele>63</ele>
        <time>2010-01-01T01:06:19Z</time>
      </trkpt>
      <trkpt lat="43.23993" lon="-1.67522">
        <ele>62</ele>
        <time>2010-01-01T01:06:25Z</time>
      </trkpt>
      <trkpt lat="43.23979" lon="-1.67511">
        <ele>61</ele>
        <time>2010-01-01T01:06:32Z</time>
      </trkpt>
      <trkpt lat="43.23971" lon="-1.675">
        <ele>60</ele>
        <time>2010-01-01T01:06:36Z</time>
      </trkpt>
      <trkpt lat="43.23966" lon="-1.6749">
        <ele>61</ele>
        <time>2010-01-01T01:06:40Z</time>
      </trkpt>
      <trkpt lat="43.2396" lon="-1.67481">
        <ele>61</ele>
        <time>2010-01-01T01:06:43Z</time>
      </trkpt>
      <trkpt lat="43.23955" lon="-1.67471">
        <ele>62</ele>
        <time>2010-01-01T01:06:47Z</time>
      </trkpt>
      <trkpt lat="43.23952" lon="-1.67466">
        <ele>62</ele>
        <time>2010-01-01T01:06:49Z</time>
      </trkpt>
      <trkpt lat="43.23946" lon="-1.67463">
        <ele>63</ele>
        <time>2010-01-01T01:06:52Z</time>
      </trkpt>
      <trkpt lat="43.23942" lon="-1.67463">
        <ele>64</ele>
        <time>2010-01-01T01:06:53Z</time>
      </trkpt>
      <trkpt lat="43.23938" lon="-1.67469">
        <ele>66</ele>
        <time>2010-01-01T01:06:55Z</time>
      </trkpt>
      <trkpt lat="43.23933" lon="-1.67483">
        <ele>69</ele>
        <time>2010-01-01T01:07:00Z</time>
      </trkpt>
      <trkpt lat="43.23821" lon="-1.67446">
        <ele>66</ele>
        <time>2010-01-01T01:07:46Z</time>
      </trkpt>
      <trkpt lat="43.23802" lon="-1.67468">
        <ele>64</ele>
        <time>2010-01-01T01:07:56Z</time>
      </trkpt>
      <trkpt lat="43.23778" lon="-1.67496">
        <ele>66</ele>
        <time>2010-01-01T01:08:09Z</time>
      </trkpt>
      <trkpt lat="43.23755" lon="-1.67521">
        <ele>64</ele>
        <time>2010-01-01T01:08:20Z</time>
      </trkpt>
      <trkpt lat="43.23723" lon="-1.67562">
        <ele>58</ele>
        <time>2010-01-01T01:08:38Z</time>
      </trkpt>
      <trkpt lat="43.23716" lon="-1.67571">
        <ele>59</ele>
        <time>2010-01-01T01:08:42Z</time>
      </trkpt>
      <trkpt lat="43.23691" lon="-1.6761">
        <ele>66</ele>
        <time>2010-01-01T01:08:57Z</time>
      </trkpt>
      <trkpt lat="43.23678" lon="-1.67631">
        <ele>70</ele>
        <time>2010-01-01T01:09:05Z</time>
      </trkpt>
      <trkpt lat="43.23665" lon="-1.67648">
        <ele>71</ele>
        <time>2010-01-01T01:09:12Z</time>
      </trkpt>
      <trkpt lat="43.23647" lon="-1.67666">
        <ele>71</ele>
        <time>2010-01-01T01:09:21Z</time>
      </trkpt>
      <trkpt lat="43.23632" lon="-1.67677">
        <ele>72</ele>
        <time>2010-01-01T01:09:28Z</time>
      </trkpt>
      <trkpt lat="43.23623" lon="-1.67684">
        <ele>73</ele>
        <time>2010-01-01T01:09:32Z</time>
      </trkpt>
      <trkpt lat="43.2361" lon="-1.67692">
        <ele>74</ele>
        <time>2010-01-01T01:09:38Z</time>
      </trkpt>
      <trkpt lat="43.23601" lon="-1.67696">
        <ele>75</ele>
        <time>2010-01-01T01:09:41Z</time>
      </trkpt>
      <trkpt lat="43.23586" lon="-1.67702">
        <ele>75</ele>
        <time>2010-01-01T01:09:48Z</time>
      </trkpt>
      <trkpt lat="43.23568" lon="-1.67708">
        <ele>73</ele>
        <time>2010-01-01T01:09:55Z</time>
      </trkpt>
      <trkpt lat="43.23548" lon="-1.6771">
        <ele>71</ele>
        <time>2010-01-01T01:10:03Z</time>
      </trkpt>
      <trkpt lat="43.2353" lon="-1.67713">
        <ele>71</ele>
        <time>2010-01-01T01:10:11Z</time>
      </trkpt>
      <trkpt lat="43.23518" lon="-1.67714">
        <ele>73</ele>
        <time>2010-01-01T01:10:15Z</time>
      </trkpt>
      <trkpt lat="43.23506" lon="-1.67715">
        <ele>74</ele>
        <time>2010-01-01T01:10:20Z</time>
      </trkpt>
      <trkpt lat="43.23498" lon="-1.67713">
        <ele>74</ele>
        <time>2010-01-01T01:10:23Z</time>
      </trkpt>
      <trkpt lat="43.23483" lon="-1.67708">
        <ele>75</ele>
        <time>2010-01-01T01:10:29Z</time>
      </trkpt>
      <trkpt lat="43.23478" lon="-1.67707">
        <ele>75</ele>
        <time>2010-01-01T01:10:32Z</time>
      </trkpt>
      <trkpt lat="43.23464" lon="-1.67699">
        <ele>76</ele>
        <time>2010-01-01T01:10:37Z</time>
      </trkpt>
      <trkpt lat="43.2345" lon="-1.67689">
        <ele>75</ele>
        <time>2010-01-01T01:10:44Z</time>
      </trkpt>
      <trkpt lat="43.23436" lon="-1.67675">
        <ele>71</ele>
        <time>2010-01-01T01:10:51Z</time>
      </trkpt>
      <trkpt lat="43.23425" lon="-1.67664">
        <ele>69</ele>
        <time>2010-01-01T01:10:56Z</time>
      </trkpt>
      <trkpt lat="43.2341" lon="-1.67647">
        <ele>67</ele>
        <time>2010-01-01T01:11:04Z</time>
      </trkpt>
      <trkpt lat="43.23399" lon="-1.67634">
        <ele>65</ele>
        <time>2010-01-01T01:11:10Z</time>
      </trkpt>
      <trkpt lat="43.23392" lon="-1.67624">
        <ele>64</ele>
        <time>2010-01-01T01:11:14Z</time>
      </trkpt>
      <trkpt lat="43.23382" lon="-1.67611">
        <ele>64</ele>
        <time>2010-01-01T01:11:19Z</time>
      </trkpt>
      <trkpt lat="43.2337" lon="-1.67598">
        <ele>65</ele>
        <time>2010-01-01T01:11:25Z</time>
      </trkpt>
      <trkpt lat="43.23355" lon="-1.6758">
        <ele>66</ele>
        <time>2010-01-01T01:11:33Z</time>
      </trkpt>
      <trkpt lat="43.23339" lon="-1.67561">
        <ele>66</ele>
        <time>2010-01-01T01:11:42Z</time>
      </trkpt>
      <trkpt lat="43.23328" lon="-1.67547">
        <ele>65</ele>
        <time>2010-01-01T01:11:48Z</time>
      </trkpt>
      <trkpt lat="43.23317" lon="-1.67535">
        <ele>64</ele>
        <time>2010-01-01T01:11:53Z</time>
      </trkpt>
      <trkpt lat="43.23306" lon="-1.67521">
        <ele>63</ele>
        <time>2010-01-01T01:11:59Z</time>
      </trkpt>
      <trkpt lat="43.23289" lon="-1.67506">
        <ele>61</ele>
        <time>2010-01-01T01:12:07Z</time>
      </trkpt>
      <trkpt lat="43.23274" lon="-1.67494">
        <ele>61</ele>
        <time>2010-01-01T01:12:15Z</time>
      </trkpt>
      <trkpt lat="43.23257" lon="-1.67486">
        <ele>64</ele>
        <time>2010-01-01T01:12:22Z</time>
      </trkpt>
      <trkpt lat="43.23238" lon="-1.6748">
        <ele>67</ele>
        <time>2010-01-01T01:12:29Z</time>
      </trkpt>
      <trkpt lat="43.2323" lon="-1.67479">
        <ele>68</ele>
        <time>2010-01-01T01:12:33Z</time>
      </trkpt>
      <trkpt lat="43.23214" lon="-1.67481">
        <ele>69</ele>
        <time>2010-01-01T01:12:39Z</time>
      </trkpt>
      <trkpt lat="43.232" lon="-1.67485">
        <ele>70</ele>
        <time>2010-01-01T01:12:45Z</time>
      </trkpt>
      <trkpt lat="43.23188" lon="-1.67492">
        <ele>70</ele>
        <time>2010-01-01T01:12:50Z</time>
      </trkpt>
      <trkpt lat="43.23177" lon="-1.67502">
        <ele>70</ele>
        <time>2010-01-01T01:12:55Z</time>
      </trkpt>
      <trkpt lat="43.23158" lon="-1.67522">
        <ele>70</ele>
        <time>2010-01-01T01:13:05Z</time>
      </trkpt>
      <trkpt lat="43.23151" lon="-1.67529">
        <ele>70</ele>
        <time>2010-01-01T01:13:08Z</time>
      </trkpt>
      <trkpt lat="43.23144" lon="-1.67539">
        <ele>70</ele>
        <time>2010-01-01T01:13:12Z</time>
      </trkpt>
      <trkpt lat="43.23142" lon="-1.67544">
        <ele>70</ele>
        <time>2010-01-01T01:13:14Z</time>
      </trkpt>
      <trkpt lat="43.23135" lon="-1.67563">
        <ele>71</ele>
        <time>2010-01-01T01:13:20Z</time>
      </trkpt>
      <trkpt lat="43.23123" lon="-1.67596">
        <ele>72</ele>
        <time>2010-01-01T01:13:31Z</time>
      </trkpt>
      <trkpt lat="43.23105" lon="-1.67637">
        <ele>73</ele>
        <time>2010-01-01T01:13:45Z</time>
      </trkpt>
      <trkpt lat="43.23082" lon="-1.67695">
        <ele>77</ele>
        <time>2010-01-01T01:14:04Z</time>
      </trkpt>
      <trkpt lat="43.23078" lon="-1.67706">
        <ele>78</ele>
        <time>2010-01-01T01:14:08Z</time>
      </trkpt>
      <trkpt lat="43.23067" lon="-1.67742">
        <ele>78</ele>
        <time>2010-01-01T01:14:19Z</time>
      </trkpt>
      <trkpt lat="43.2305" lon="-1.67783">
        <ele>78</ele>
        <time>2010-01-01T01:14:33Z</time>
      </trkpt>
      <trkpt lat="43.23038" lon="-1.67809">
        <ele>78</ele>
        <time>2010-01-01T01:14:42Z</time>
      </trkpt>
      <trkpt lat="43.23025" lon="-1.67828">
        <ele>74</ele>
        <time>2010-01-01T01:14:50Z</time>
      </trkpt>
      <trkpt lat="43.23017" lon="-1.67837">
        <ele>73</ele>
        <time>2010-01-01T01:14:54Z</time>
      </trkpt>
      <trkpt lat="43.23004" lon="-1.67846">
        <ele>70</ele>
        <time>2010-01-01T01:14:59Z</time>
      </trkpt>
      <trkpt lat="43.22993" lon="-1.67854">
        <ele>70</ele>
        <time>2010-01-01T01:15:04Z</time>
      </trkpt>
      <trkpt lat="43.22985" lon="-1.67858">
        <ele>69</ele>
        <time>2010-01-01T01:15:08Z</time>
      </trkpt>
      <trkpt lat="43.22968" lon="-1.67866">
        <ele>69</ele>
        <time>2010-01-01T01:15:15Z</time>
      </trkpt>
      <trkpt lat="43.22954" lon="-1.67871">
        <ele>69</ele>
        <time>2010-01-01T01:15:21Z</time>
      </trkpt>
      <trkpt lat="43.22943" lon="-1.67876">
        <ele>70</ele>
        <time>2010-01-01T01:15:25Z</time>
      </trkpt>
      <trkpt lat="43.22931" lon="-1.6788">
        <ele>70</ele>
        <time>2010-01-01T01:15:30Z</time>
      </trkpt>
      <trkpt lat="43.2292" lon="-1.67884">
        <ele>70</ele>
        <time>2010-01-01T01:15:35Z</time>
      </trkpt>
      <trkpt lat="43.22908" lon="-1.67889">
        <ele>69</ele>
        <time>2010-01-01T01:15:40Z</time>
      </trkpt>
      <trkpt lat="43.22894" lon="-1.67894">
        <ele>67</ele>
        <time>2010-01-01T01:15:46Z</time>
      </trkpt>
      <trkpt lat="43.22882" lon="-1.67899">
        <ele>65</ele>
        <time>2010-01-01T01:15:51Z</time>
      </trkpt>
      <trkpt lat="43.22874" lon="-1.67902">
        <ele>64</ele>
        <time>2010-01-01T01:15:54Z</time>
      </trkpt>
      <trkpt lat="43.22855" lon="-1.67909">
        <ele>62</ele>
        <time>2010-01-01T01:16:02Z</time>
      </trkpt>
      <trkpt lat="43.22845" lon="-1.67914">
        <ele>62</ele>
        <time>2010-01-01T01:16:06Z</time>
      </trkpt>
      <trkpt lat="43.22832" lon="-1.67919">
        <ele>62</ele>
        <time>2010-01-01T01:16:12Z</time>
      </trkpt>
      <trkpt lat="43.22828" lon="-1.67921">
        <ele>62</ele>
        <time>2010-01-01T01:16:14Z</time>
      </trkpt>
      <trkpt lat="43.22824" lon="-1.67921">
        <ele>62</ele>
        <time>2010-01-01T01:16:15Z</time>
      </trkpt>
      <trkpt lat="43.22783" lon="-1.67924">
        <ele>68</ele>
        <time>2010-01-01T01:16:31Z</time>
      </trkpt>
      <trkpt lat="43.22774" lon="-1.67915">
        <ele>69</ele>
        <time>2010-01-01T01:16:36Z</time>
      </trkpt>
      <trkpt lat="43.22762" lon="-1.67909">
        <ele>71</ele>
        <time>2010-01-01T01:16:41Z</time>
      </trkpt>
      <trkpt lat="43.22754" lon="-1.67905">
        <ele>72</ele>
        <time>2010-01-01T01:16:45Z</time>
      </trkpt>
      <trkpt lat="43.22742" lon="-1.67897">
        <ele>73</ele>
        <time>2010-01-01T01:16:50Z</time>
      </trkpt>
      <trkpt lat="43.22722" lon="-1.67881">
        <ele>72</ele>
        <time>2010-01-01T01:16:59Z</time>
      </trkpt>
      <trkpt lat="43.22689" lon="-1.67842">
        <ele>67</ele>
        <time>2010-01-01T01:17:16Z</time>
      </trkpt>
      <trkpt lat="43.22669" lon="-1.6782">
        <ele>64</ele>
        <time>2010-01-01T01:17:27Z</time>
      </trkpt>
      <trkpt lat="43.22649" lon="-1.67797">
        <ele>63</ele>
        <time>2010-01-01T01:17:37Z</time>
      </trkpt>
      <trkpt lat="43.22643" lon="-1.6779">
        <ele>63</ele>
        <time>2010-01-01T01:17:40Z</time>
      </trkpt>
      <trkpt lat="43.22632" lon="-1.67779">
        <ele>63</ele>
        <time>2010-01-01T01:17:46Z</time>
      </trkpt>
      <trkpt lat="43.22619" lon="-1.6777">
        <ele>65</ele>
        <time>2010-01-01T01:17:52Z</time>
      </trkpt>
      <trkpt lat="43.22592" lon="-1.67746">
        <ele>64</ele>
        <time>2010-01-01T01:18:05Z</time>
      </trkpt>
      <trkpt lat="43.2258" lon="-1.67735">
        <ele>64</ele>
        <time>2010-01-01T01:18:10Z</time>
      </trkpt>
      <trkpt lat="43.2257" lon="-1.67724">
        <ele>64</ele>
        <time>2010-01-01T01:18:16Z</time>
      </trkpt>
      <trkpt lat="43.22545" lon="-1.67701">
        <ele>65</ele>
        <time>2010-01-01T01:18:27Z</time>
      </trkpt>
      <trkpt lat="43.22539" lon="-1.67694">
        <ele>65</ele>
        <time>2010-01-01T01:18:30Z</time>
      </trkpt>
      <trkpt lat="43.22528" lon="-1.67681">
        <ele>67</ele>
        <time>2010-01-01T01:18:36Z</time>
      </trkpt>
      <trkpt lat="43.22503" lon="-1.6766">
        <ele>67</ele>
        <time>2010-01-01T01:18:48Z</time>
      </trkpt>
      <trkpt lat="43.22493" lon="-1.6765">
        <ele>66</ele>
        <time>2010-01-01T01:18:53Z</time>
      </trkpt>
      <trkpt lat="43.22484" lon="-1.67641">
        <ele>65</ele>
        <time>2010-01-01T01:18:58Z</time>
      </trkpt>
      <trkpt lat="43.22471" lon="-1.67627">
        <ele>64</ele>
        <time>2010-01-01T01:19:04Z</time>
      </trkpt>
      <trkpt lat="43.22462" lon="-1.6762">
        <ele>63</ele>
        <time>2010-01-01T01:19:08Z</time>
      </trkpt>
      <trkpt lat="43.22454" lon="-1.67615">
        <ele>63</ele>
        <time>2010-01-01T01:19:12Z</time>
      </trkpt>
      <trkpt lat="43.22443" lon="-1.67609">
        <ele>61</ele>
        <time>2010-01-01T01:19:16Z</time>
      </trkpt>
      <trkpt lat="43.22422" lon="-1.67601">
        <ele>61</ele>
        <time>2010-01-01T01:19:25Z</time>
      </trkpt>
      <trkpt lat="43.22408" lon="-1.67598">
        <ele>62</ele>
        <time>2010-01-01T01:19:31Z</time>
      </trkpt>
      <trkpt lat="43.22398" lon="-1.67598">
        <ele>62</ele>
        <time>2010-01-01T01:19:35Z</time>
      </trkpt>
      <trkpt lat="43.2238" lon="-1.67599">
        <ele>61</ele>
        <time>2010-01-01T01:19:42Z</time>
      </trkpt>
      <trkpt lat="43.22371" lon="-1.676">
        <ele>61</ele>
        <time>2010-01-01T01:19:46Z</time>
      </trkpt>
      <trkpt lat="43.22356" lon="-1.67603">
        <ele>61</ele>
        <time>2010-01-01T01:19:52Z</time>
      </trkpt>
      <trkpt lat="43.22324" lon="-1.67611">
        <ele>63</ele>
        <time>2010-01-01T01:20:05Z</time>
      </trkpt>
      <trkpt lat="43.22311" lon="-1.67614">
        <ele>64</ele>
        <time>2010-01-01T01:20:10Z</time>
      </trkpt>
      <trkpt lat="43.22285" lon="-1.67619">
        <ele>65</ele>
        <time>2010-01-01T01:20:21Z</time>
      </trkpt>
      <trkpt lat="43.22273" lon="-1.67622">
        <ele>65</ele>
        <time>2010-01-01T01:20:25Z</time>
      </trkpt>
      <trkpt lat="43.22257" lon="-1.67626">
        <ele>65</ele>
        <time>2010-01-01T01:20:32Z</time>
      </trkpt>
      <trkpt lat="43.22239" lon="-1.67632">
        <ele>66</ele>
        <time>2010-01-01T01:20:39Z</time>
      </trkpt>
      <trkpt lat="43.22231" lon="-1.67636">
        <ele>66</ele>
        <time>2010-01-01T01:20:43Z</time>
      </trkpt>
      <trkpt lat="43.22223" lon="-1.6764">
        <ele>67</ele>
        <time>2010-01-01T01:20:46Z</time>
      </trkpt>
      <trkpt lat="43.22212" lon="-1.67651">
        <ele>66</ele>
        <time>2010-01-01T01:20:52Z</time>
      </trkpt>
      <trkpt lat="43.22204" lon="-1.67659">
        <ele>66</ele>
        <time>2010-01-01T01:20:56Z</time>
      </trkpt>
      <trkpt lat="43.22194" lon="-1.67669">
        <ele>65</ele>
        <time>2010-01-01T01:21:01Z</time>
      </trkpt>
      <trkpt lat="43.22186" lon="-1.67679">
        <ele>66</ele>
        <time>2010-01-01T01:21:05Z</time>
      </trkpt>
      <trkpt lat="43.22181" lon="-1.67689">
        <ele>66</ele>
        <time>2010-01-01T01:21:08Z</time>
      </trkpt>
      <trkpt lat="43.22174" lon="-1.677">
        <ele>67</ele>
        <time>2010-01-01T01:21:13Z</time>
      </trkpt>
      <trkpt lat="43.22169" lon="-1.67711">
        <ele>67</ele>
        <time>2010-01-01T01:21:16Z</time>
      </trkpt>
      <trkpt lat="43.22163" lon="-1.67724">
        <ele>68</ele>
        <time>2010-01-01T01:21:21Z</time>
      </trkpt>
      <trkpt lat="43.22159" lon="-1.67738">
        <ele>68</ele>
        <time>2010-01-01T01:21:25Z</time>
      </trkpt>
      <trkpt lat="43.22151" lon="-1.67765">
        <ele>68</ele>
        <time>2010-01-01T01:21:34Z</time>
      </trkpt>
      <trkpt lat="43.22146" lon="-1.67788">
        <ele>68</ele>
        <time>2010-01-01T01:21:41Z</time>
      </trkpt>
      <trkpt lat="43.22141" lon="-1.67806">
        <ele>70</ele>
        <time>2010-01-01T01:21:46Z</time>
      </trkpt>
      <trkpt lat="43.22135" lon="-1.67831">
        <ele>71</ele>
        <time>2010-01-01T01:21:54Z</time>
      </trkpt>
      <trkpt lat="43.22127" lon="-1.67863">
        <ele>71</ele>
        <time>2010-01-01T01:22:04Z</time>
      </trkpt>
      <trkpt lat="43.22113" lon="-1.67919">
        <ele>71</ele>
        <time>2010-01-01T01:22:21Z</time>
      </trkpt>
      <trkpt lat="43.22104" lon="-1.67946">
        <ele>72</ele>
        <time>2010-01-01T01:22:30Z</time>
      </trkpt>
      <trkpt lat="43.22099" lon="-1.67957">
        <ele>72</ele>
        <time>2010-01-01T01:22:34Z</time>
      </trkpt>
      <trkpt lat="43.22089" lon="-1.67977">
        <ele>72</ele>
        <time>2010-01-01T01:22:41Z</time>
      </trkpt>
      <trkpt lat="43.22082" lon="-1.67987">
        <ele>72</ele>
        <time>2010-01-01T01:22:45Z</time>
      </trkpt>
      <trkpt lat="43.22076" lon="-1.67995">
        <ele>73</ele>
        <time>2010-01-01T01:22:48Z</time>
      </trkpt>
      <trkpt lat="43.22065" lon="-1.68007">
        <ele>74</ele>
        <time>2010-01-01T01:22:54Z</time>
      </trkpt>
      <trkpt lat="43.22059" lon="-1.68013">
        <ele>75</ele>
        <time>2010-01-01T01:22:57Z</time>
      </trkpt>
      <trkpt lat="43.22044" lon="-1.68025">
        <ele>77</ele>
        <time>2010-01-01T01:23:04Z</time>
      </trkpt>
      <trkpt lat="43.22038" lon="-1.68028">
        <ele>77</ele>
        <time>2010-01-01T01:23:06Z</time>
      </trkpt>
      <trkpt lat="43.22035" lon="-1.68029">
        <ele>78</ele>
        <time>2010-01-01T01:23:08Z</time>
      </trkpt>
      <trkpt lat="43.22024" lon="-1.68034">
        <ele>79</ele>
        <time>2010-01-01T01:23:12Z</time>
      </trkpt>
      <trkpt lat="43.22019" lon="-1.68035">
        <ele>80</ele>
        <time>2010-01-01T01:23:14Z</time>
      </trkpt>
      <trkpt lat="43.22005" lon="-1.68038">
        <ele>81</ele>
        <time>2010-01-01T01:23:20Z</time>
      </trkpt>
      <trkpt lat="43.21992" lon="-1.68039">
        <ele>80</ele>
        <time>2010-01-01T01:23:25Z</time>
      </trkpt>
      <trkpt lat="43.21982" lon="-1.68039">
        <ele>79</ele>
        <time>2010-01-01T01:23:29Z</time>
      </trkpt>
      <trkpt lat="43.21975" lon="-1.68037">
        <ele>78</ele>
        <time>2010-01-01T01:23:32Z</time>
      </trkpt>
      <trkpt lat="43.21948" lon="-1.6803">
        <ele>77</ele>
        <time>2010-01-01T01:23:43Z</time>
      </trkpt>
      <trkpt lat="43.21934" lon="-1.68026">
        <ele>77</ele>
        <time>2010-01-01T01:23:49Z</time>
      </trkpt>
      <trkpt lat="43.21924" lon="-1.68023">
        <ele>77</ele>
        <time>2010-01-01T01:23:53Z</time>
      </trkpt>
      <trkpt lat="43.21905" lon="-1.68018">
        <ele>79</ele>
        <time>2010-01-01T01:24:00Z</time>
      </trkpt>
      <trkpt lat="43.21881" lon="-1.68011">
        <ele>81</ele>
        <time>2010-01-01T01:24:10Z</time>
      </trkpt>
      <trkpt lat="43.21858" lon="-1.68004">
        <ele>86</ele>
        <time>2010-01-01T01:24:20Z</time>
      </trkpt>
      <trkpt lat="43.21831" lon="-1.67995">
        <ele>90</ele>
        <time>2010-01-01T01:24:31Z</time>
      </trkpt>
      <trkpt lat="43.21816" lon="-1.67987">
        <ele>89</ele>
        <time>2010-01-01T01:24:37Z</time>
      </trkpt>
      <trkpt lat="43.21808" lon="-1.67982">
        <ele>88</ele>
        <time>2010-01-01T01:24:41Z</time>
      </trkpt>
      <trkpt lat="43.21798" lon="-1.67975">
        <ele>88</ele>
        <time>2010-01-01T01:24:45Z</time>
      </trkpt>
      <trkpt lat="43.21792" lon="-1.6797">
        <ele>88</ele>
        <time>2010-01-01T01:24:48Z</time>
      </trkpt>
      <trkpt lat="43.21786" lon="-1.67964">
        <ele>88</ele>
        <time>2010-01-01T01:24:51Z</time>
      </trkpt>
      <trkpt lat="43.21778" lon="-1.67954">
        <ele>88</ele>
        <time>2010-01-01T01:24:56Z</time>
      </trkpt>
      <trkpt lat="43.21768" lon="-1.67936">
        <ele>88</ele>
        <time>2010-01-01T01:25:02Z</time>
      </trkpt>
      <trkpt lat="43.21759" lon="-1.67919">
        <ele>88</ele>
        <time>2010-01-01T01:25:08Z</time>
      </trkpt>
      <trkpt lat="43.21755" lon="-1.6791">
        <ele>88</ele>
        <time>2010-01-01T01:25:11Z</time>
      </trkpt>
      <trkpt lat="43.2175" lon="-1.67896">
        <ele>86</ele>
        <time>2010-01-01T01:25:16Z</time>
      </trkpt>
      <trkpt lat="43.21744" lon="-1.67869">
        <ele>82</ele>
        <time>2010-01-01T01:25:24Z</time>
      </trkpt>
      <trkpt lat="43.2174" lon="-1.67845">
        <ele>80</ele>
        <time>2010-01-01T01:25:31Z</time>
      </trkpt>
      <trkpt lat="43.21735" lon="-1.67819">
        <ele>77</ele>
        <time>2010-01-01T01:25:39Z</time>
      </trkpt>
      <trkpt lat="43.21728" lon="-1.6779">
        <ele>77</ele>
        <time>2010-01-01T01:25:48Z</time>
      </trkpt>
      <trkpt lat="43.21725" lon="-1.67768">
        <ele>76</ele>
        <time>2010-01-01T01:25:55Z</time>
      </trkpt>
      <trkpt lat="43.21724" lon="-1.6775">
        <ele>74</ele>
        <time>2010-01-01T01:26:00Z</time>
      </trkpt>
      <trkpt lat="43.21722" lon="-1.67704">
        <ele>70</ele>
        <time>2010-01-01T01:26:13Z</time>
      </trkpt>
      <trkpt lat="43.2172" lon="-1.67681">
        <ele>70</ele>
        <time>2010-01-01T01:26:20Z</time>
      </trkpt>
      <trkpt lat="43.2172" lon="-1.6766">
        <ele>71</ele>
        <time>2010-01-01T01:26:26Z</time>
      </trkpt>
      <trkpt lat="43.2172" lon="-1.67636">
        <ele>72</ele>
        <time>2010-01-01T01:26:33Z</time>
      </trkpt>
      <trkpt lat="43.21721" lon="-1.676">
        <ele>74</ele>
        <time>2010-01-01T01:26:44Z</time>
      </trkpt>
      <trkpt lat="43.21725" lon="-1.67568">
        <ele>72</ele>
        <time>2010-01-01T01:26:53Z</time>
      </trkpt>
      <trkpt lat="43.21732" lon="-1.67525">
        <ele>70</ele>
        <time>2010-01-01T01:27:06Z</time>
      </trkpt>
      <trkpt lat="43.2174" lon="-1.67486">
        <ele>70</ele>
        <time>2010-01-01T01:27:18Z</time>
      </trkpt>
      <trkpt lat="43.21753" lon="-1.67419">
        <ele>68</ele>
        <time>2010-01-01T01:27:38Z</time>
      </trkpt>
      <trkpt lat="43.21758" lon="-1.67396">
        <ele>70</ele>
        <time>2010-01-01T01:27:45Z</time>
      </trkpt>
      <trkpt lat="43.21772" lon="-1.6732">
        <ele>70</ele>
        <time>2010-01-01T01:28:08Z</time>
      </trkpt>
      <trkpt lat="43.21777" lon="-1.67286">
        <ele>72</ele>
        <time>2010-01-01T01:28:18Z</time>
      </trkpt>
      <trkpt lat="43.21779" lon="-1.67268">
        <ele>72</ele>
        <time>2010-01-01T01:28:23Z</time>
      </trkpt>
      <trkpt lat="43.21778" lon="-1.67251">
        <ele>71</ele>
        <time>2010-01-01T01:28:28Z</time>
      </trkpt>
      <trkpt lat="43.21777" lon="-1.67244">
        <ele>70</ele>
        <time>2010-01-01T01:28:31Z</time>
      </trkpt>
      <trkpt lat="43.21777" lon="-1.67241">
        <ele>70</ele>
        <time>2010-01-01T01:28:31Z</time>
      </trkpt>
      <trkpt lat="43.21775" lon="-1.67229">
        <ele>70</ele>
        <time>2010-01-01T01:28:35Z</time>
      </trkpt>
      <trkpt lat="43.2177" lon="-1.67215">
        <ele>70</ele>
        <time>2010-01-01T01:28:39Z</time>
      </trkpt>
      <trkpt lat="43.21763" lon="-1.67196">
        <ele>71</ele>
        <time>2010-01-01T01:28:46Z</time>
      </trkpt>
      <trkpt lat="43.21757" lon="-1.67183">
        <ele>70</ele>
        <time>2010-01-01T01:28:50Z</time>
      </trkpt>
      <trkpt lat="43.2175" lon="-1.67172">
        <ele>70</ele>
        <time>2010-01-01T01:28:55Z</time>
      </trkpt>
      <trkpt lat="43.21744" lon="-1.67165">
        <ele>70</ele>
        <time>2010-01-01T01:28:57Z</time>
      </trkpt>
      <trkpt lat="43.21734" lon="-1.67152">
        <ele>69</ele>
        <time>2010-01-01T01:29:03Z</time>
      </trkpt>
      <trkpt lat="43.21724" lon="-1.67141">
        <ele>67</ele>
        <time>2010-01-01T01:29:08Z</time>
      </trkpt>
      <trkpt lat="43.2172" lon="-1.67138">
        <ele>67</ele>
        <time>2010-01-01T01:29:10Z</time>
      </trkpt>
      <trkpt lat="43.21712" lon="-1.67132">
        <ele>68</ele>
        <time>2010-01-01T01:29:14Z</time>
      </trkpt>
      <trkpt lat="43.21705" lon="-1.67129">
        <ele>69</ele>
        <time>2010-01-01T01:29:17Z</time>
      </trkpt>
      <trkpt lat="43.21694" lon="-1.67126">
        <ele>70</ele>
        <time>2010-01-01T01:29:21Z</time>
      </trkpt>
      <trkpt lat="43.21677" lon="-1.67123">
        <ele>70</ele>
        <time>2010-01-01T01:29:28Z</time>
      </trkpt>
      <trkpt lat="43.21663" lon="-1.67121">
        <ele>70</ele>
        <time>2010-01-01T01:29:34Z</time>
      </trkpt>
      <trkpt lat="43.21649" lon="-1.6712">
        <ele>71</ele>
        <time>2010-01-01T01:29:39Z</time>
      </trkpt>
      <trkpt lat="43.21638" lon="-1.67119">
        <ele>71</ele>
        <time>2010-01-01T01:29:44Z</time>
      </trkpt>
      <trkpt lat="43.21623" lon="-1.67118">
        <ele>71</ele>
        <time>2010-01-01T01:29:50Z</time>
      </trkpt>
      <trkpt lat="43.21595" lon="-1.67114">
        <ele>72</ele>
        <time>2010-01-01T01:30:01Z</time>
      </trkpt>
      <trkpt lat="43.2158" lon="-1.67112">
        <ele>72</ele>
        <time>2010-01-01T01:30:07Z</time>
      </trkpt>
      <trkpt lat="43.21553" lon="-1.67111">
        <ele>71</ele>
        <time>2010-01-01T01:30:18Z</time>
      </trkpt>
      <trkpt lat="43.21544" lon="-1.67112">
        <ele>72</ele>
        <time>2010-01-01T01:30:21Z</time>
      </trkpt>
      <trkpt lat="43.21536" lon="-1.67114">
        <ele>72</ele>
        <time>2010-01-01T01:30:24Z</time>
      </trkpt>
      <trkpt lat="43.21516" lon="-1.67121">
        <ele>74</ele>
        <time>2010-01-01T01:30:33Z</time>
      </trkpt>
      <trkpt lat="43.21497" lon="-1.67129">
        <ele>76</ele>
        <time>2010-01-01T01:30:41Z</time>
      </trkpt>
      <trkpt lat="43.21479" lon="-1.6714">
        <ele>77</ele>
        <time>2010-01-01T01:30:49Z</time>
      </trkpt>
      <trkpt lat="43.21463" lon="-1.67151">
        <ele>78</ele>
        <time>2010-01-01T01:30:56Z</time>
      </trkpt>
      <trkpt lat="43.21451" lon="-1.67159">
        <ele>78</ele>
        <time>2010-01-01T01:31:01Z</time>
      </trkpt>
      <trkpt lat="43.21435" lon="-1.67169">
        <ele>77</ele>
        <time>2010-01-01T01:31:08Z</time>
      </trkpt>
      <trkpt lat="43.21408" lon="-1.67187">
        <ele>75</ele>
        <time>2010-01-01T01:31:20Z</time>
      </trkpt>
      <trkpt lat="43.214" lon="-1.67193">
        <ele>73</ele>
        <time>2010-01-01T01:31:24Z</time>
      </trkpt>
      <trkpt lat="43.21393" lon="-1.67198">
        <ele>73</ele>
        <time>2010-01-01T01:31:27Z</time>
      </trkpt>
      <trkpt lat="43.21376" lon="-1.67209">
        <ele>72</ele>
        <time>2010-01-01T01:31:35Z</time>
      </trkpt>
      <trkpt lat="43.21355" lon="-1.67223">
        <ele>73</ele>
        <time>2010-01-01T01:31:44Z</time>
      </trkpt>
      <trkpt lat="43.21338" lon="-1.67234">
        <ele>74</ele>
        <time>2010-01-01T01:31:52Z</time>
      </trkpt>
      <trkpt lat="43.21318" lon="-1.67248">
        <ele>75</ele>
        <time>2010-01-01T01:32:01Z</time>
      </trkpt>
      <trkpt lat="43.21304" lon="-1.67257">
        <ele>78</ele>
        <time>2010-01-01T01:32:07Z</time>
      </trkpt>
      <trkpt lat="43.21294" lon="-1.67263">
        <ele>79</ele>
        <time>2010-01-01T01:32:11Z</time>
      </trkpt>
      <trkpt lat="43.21285" lon="-1.67268">
        <ele>79</ele>
        <time>2010-01-01T01:32:15Z</time>
      </trkpt>
      <trkpt lat="43.2128" lon="-1.67269">
        <ele>79</ele>
        <time>2010-01-01T01:32:17Z</time>
      </trkpt>
      <trkpt lat="43.21271" lon="-1.67272">
        <ele>78</ele>
        <time>2010-01-01T01:32:21Z</time>
      </trkpt>
      <trkpt lat="43.21263" lon="-1.67273">
        <ele>78</ele>
        <time>2010-01-01T01:32:24Z</time>
      </trkpt>
      <trkpt lat="43.21248" lon="-1.67274">
        <ele>77</ele>
        <time>2010-01-01T01:32:30Z</time>
      </trkpt>
      <trkpt lat="43.21239" lon="-1.67274">
        <ele>79</ele>
        <time>2010-01-01T01:32:33Z</time>
      </trkpt>
      <trkpt lat="43.21233" lon="-1.67272">
        <ele>81</ele>
        <time>2010-01-01T01:32:36Z</time>
      </trkpt>
      <trkpt lat="43.21222" lon="-1.67269">
        <ele>83</ele>
        <time>2010-01-01T01:32:40Z</time>
      </trkpt>
      <trkpt lat="43.21213" lon="-1.67266">
        <ele>86</ele>
        <time>2010-01-01T01:32:44Z</time>
      </trkpt>
      <trkpt lat="43.21192" lon="-1.67256">
        <ele>91</ele>
        <time>2010-01-01T01:32:53Z</time>
      </trkpt>
      <trkpt lat="43.21185" lon="-1.67252">
        <ele>92</ele>
        <time>2010-01-01T01:32:56Z</time>
      </trkpt>
      <trkpt lat="43.21174" lon="-1.67242">
        <ele>91</ele>
        <time>2010-01-01T01:33:01Z</time>
      </trkpt>
      <trkpt lat="43.21165" lon="-1.67233">
        <ele>90</ele>
        <time>2010-01-01T01:33:06Z</time>
      </trkpt>
      <trkpt lat="43.21155" lon="-1.67221">
        <ele>88</ele>
        <time>2010-01-01T01:33:11Z</time>
      </trkpt>
      <trkpt lat="43.21149" lon="-1.67211">
        <ele>87</ele>
        <time>2010-01-01T01:33:15Z</time>
      </trkpt>
      <trkpt lat="43.21139" lon="-1.67192">
        <ele>83</ele>
        <time>2010-01-01T01:33:22Z</time>
      </trkpt>
      <trkpt lat="43.21133" lon="-1.67179">
        <ele>83</ele>
        <time>2010-01-01T01:33:26Z</time>
      </trkpt>
      <trkpt lat="43.21123" lon="-1.67159">
        <ele>84</ele>
        <time>2010-01-01T01:33:33Z</time>
      </trkpt>
      <trkpt lat="43.21115" lon="-1.67137">
        <ele>84</ele>
        <time>2010-01-01T01:33:40Z</time>
      </trkpt>
      <trkpt lat="43.21104" lon="-1.67113">
        <ele>87</ele>
        <time>2010-01-01T01:33:49Z</time>
      </trkpt>
      <trkpt lat="43.21098" lon="-1.67098">
        <ele>88</ele>
        <time>2010-01-01T01:33:54Z</time>
      </trkpt>
      <trkpt lat="43.21088" lon="-1.67075">
        <ele>89</ele>
        <time>2010-01-01T01:34:02Z</time>
      </trkpt>
      <trkpt lat="43.21075" lon="-1.67047">
        <ele>87</ele>
        <time>2010-01-01T01:34:11Z</time>
      </trkpt>
      <trkpt lat="43.21033" lon="-1.66957">
        <ele>84</ele>
        <time>2010-01-01T01:34:42Z</time>
      </trkpt>
      <trkpt lat="43.21016" lon="-1.66924">
        <ele>85</ele>
        <time>2010-01-01T01:34:54Z</time>
      </trkpt>
      <trkpt lat="43.20998" lon="-1.66888">
        <ele>88</ele>
        <time>2010-01-01T01:35:07Z</time>
      </trkpt>
      <trkpt lat="43.20991" lon="-1.66873">
        <ele>88</ele>
        <time>2010-01-01T01:35:12Z</time>
      </trkpt>
      <trkpt lat="43.20985" lon="-1.66857">
        <ele>87</ele>
        <time>2010-01-01T01:35:17Z</time>
      </trkpt>
      <trkpt lat="43.2098" lon="-1.6684">
        <ele>85</ele>
        <time>2010-01-01T01:35:23Z</time>
      </trkpt>
      <trkpt lat="43.20973" lon="-1.66806">
        <ele>80</ele>
        <time>2010-01-01T01:35:33Z</time>
      </trkpt>
      <trkpt lat="43.20964" lon="-1.66748">
        <ele>84</ele>
        <time>2010-01-01T01:35:50Z</time>
      </trkpt>
      <trkpt lat="43.20953" lon="-1.66679">
        <ele>88</ele>
        <time>2010-01-01T01:36:11Z</time>
      </trkpt>
      <trkpt lat="43.20947" lon="-1.66644">
        <ele>88</ele>
        <time>2010-01-01T01:36:21Z</time>
      </trkpt>
      <trkpt lat="43.20942" lon="-1.6662">
        <ele>87</ele>
        <time>2010-01-01T01:36:29Z</time>
      </trkpt>
      <trkpt lat="43.20938" lon="-1.66595">
        <ele>84</ele>
        <time>2010-01-01T01:36:36Z</time>
      </trkpt>
      <trkpt lat="43.20936" lon="-1.66587">
        <ele>83</ele>
        <time>2010-01-01T01:36:39Z</time>
      </trkpt>
      <trkpt lat="43.20931" lon="-1.66569">
        <ele>83</ele>
        <time>2010-01-01T01:36:44Z</time>
      </trkpt>
      <trkpt lat="43.20923" lon="-1.6655">
        <ele>84</ele>
        <time>2010-01-01T01:36:51Z</time>
      </trkpt>
      <trkpt lat="43.20918" lon="-1.66537">
        <ele>85</ele>
        <time>2010-01-01T01:36:55Z</time>
      </trkpt>
      <trkpt lat="43.20901" lon="-1.66501">
        <ele>87</ele>
        <time>2010-01-01T01:37:08Z</time>
      </trkpt>
      <trkpt lat="43.20891" lon="-1.66481">
        <ele>84</ele>
        <time>2010-01-01T01:37:14Z</time>
      </trkpt>
      <trkpt lat="43.20883" lon="-1.66465">
        <ele>84</ele>
        <time>2010-01-01T01:37:20Z</time>
      </trkpt>
      <trkpt lat="43.20875" lon="-1.66451">
        <ele>85</ele>
        <time>2010-01-01T01:37:26Z</time>
      </trkpt>
      <trkpt lat="43.20849" lon="-1.66413">
        <ele>86</ele>
        <time>2010-01-01T01:37:41Z</time>
      </trkpt>
      <trkpt lat="43.20837" lon="-1.66397">
        <ele>84</ele>
        <time>2010-01-01T01:37:47Z</time>
      </trkpt>
      <trkpt lat="43.20826" lon="-1.66379">
        <ele>85</ele>
        <time>2010-01-01T01:37:54Z</time>
      </trkpt>
      <trkpt lat="43.20816" lon="-1.66365">
        <ele>87</ele>
        <time>2010-01-01T01:38:00Z</time>
      </trkpt>
      <trkpt lat="43.20809" lon="-1.66356">
        <ele>88</ele>
        <time>2010-01-01T01:38:04Z</time>
      </trkpt>
      <trkpt lat="43.20796" lon="-1.6634">
        <ele>86</ele>
        <time>2010-01-01T01:38:11Z</time>
      </trkpt>
      <trkpt lat="43.20783" lon="-1.66327">
        <ele>86</ele>
        <time>2010-01-01T01:38:17Z</time>
      </trkpt>
      <trkpt lat="43.20777" lon="-1.66322">
        <ele>85</ele>
        <time>2010-01-01T01:38:20Z</time>
      </trkpt>
      <trkpt lat="43.20759" lon="-1.66306">
        <ele>82</ele>
        <time>2010-01-01T01:38:29Z</time>
      </trkpt>
      <trkpt lat="43.20755" lon="-1.66303">
        <ele>81</ele>
        <time>2010-01-01T01:38:30Z</time>
      </trkpt>
      <trkpt lat="43.20737" lon="-1.66289">
        <ele>84</ele>
        <time>2010-01-01T01:38:39Z</time>
      </trkpt>
      <trkpt lat="43.20719" lon="-1.66277">
        <ele>86</ele>
        <time>2010-01-01T01:38:47Z</time>
      </trkpt>
      <trkpt lat="43.20709" lon="-1.66271">
        <ele>87</ele>
        <time>2010-01-01T01:38:51Z</time>
      </trkpt>
      <trkpt lat="43.20698" lon="-1.66265">
        <ele>87</ele>
        <time>2010-01-01T01:38:56Z</time>
      </trkpt>
      <trkpt lat="43.20688" lon="-1.66261">
        <ele>87</ele>
        <time>2010-01-01T01:39:00Z</time>
      </trkpt>
      <trkpt lat="43.20663" lon="-1.6625">
        <ele>84</ele>
        <time>2010-01-01T01:39:10Z</time>
      </trkpt>
      <trkpt lat="43.20652" lon="-1.66246">
        <ele>85</ele>
        <time>2010-01-01T01:39:15Z</time>
      </trkpt>
      <trkpt lat="43.20611" lon="-1.6623">
        <ele>85</ele>
        <time>2010-01-01T01:39:32Z</time>
      </trkpt>
      <trkpt lat="43.20566" lon="-1.66221">
        <ele>81</ele>
        <time>2010-01-01T01:39:50Z</time>
      </trkpt>
      <trkpt lat="43.20556" lon="-1.66219">
        <ele>80</ele>
        <time>2010-01-01T01:39:54Z</time>
      </trkpt>
      <trkpt lat="43.20543" lon="-1.66217">
        <ele>78</ele>
        <time>2010-01-01T01:40:00Z</time>
      </trkpt>
      <trkpt lat="43.20532" lon="-1.66217">
        <ele>77</ele>
        <time>2010-01-01T01:40:04Z</time>
      </trkpt>
      <trkpt lat="43.20524" lon="-1.66219">
        <ele>77</ele>
        <time>2010-01-01T01:40:07Z</time>
      </trkpt>
      <trkpt lat="43.20511" lon="-1.6622">
        <ele>78</ele>
        <time>2010-01-01T01:40:13Z</time>
      </trkpt>
      <trkpt lat="43.20501" lon="-1.66222">
        <ele>78</ele>
        <time>2010-01-01T01:40:17Z</time>
      </trkpt>
      <trkpt lat="43.20491" lon="-1.66227">
        <ele>79</ele>
        <time>2010-01-01T01:40:21Z</time>
      </trkpt>
      <trkpt lat="43.20479" lon="-1.66233">
        <ele>79</ele>
        <time>2010-01-01T01:40:26Z</time>
      </trkpt>
      <trkpt lat="43.20474" lon="-1.66239">
        <ele>79</ele>
        <time>2010-01-01T01:40:29Z</time>
      </trkpt>
      <trkpt lat="43.2046" lon="-1.66259">
        <ele>80</ele>
        <time>2010-01-01T01:40:37Z</time>
      </trkpt>
      <trkpt lat="43.20452" lon="-1.66271">
        <ele>79</ele>
        <time>2010-01-01T01:40:41Z</time>
      </trkpt>
      <trkpt lat="43.20444" lon="-1.66286">
        <ele>78</ele>
        <time>2010-01-01T01:40:47Z</time>
      </trkpt>
      <trkpt lat="43.20437" lon="-1.66303">
        <ele>77</ele>
        <time>2010-01-01T01:40:52Z</time>
      </trkpt>
      <trkpt lat="43.20428" lon="-1.66321">
        <ele>78</ele>
        <time>2010-01-01T01:40:59Z</time>
      </trkpt>
      <trkpt lat="43.20422" lon="-1.6634">
        <ele>80</ele>
        <time>2010-01-01T01:41:05Z</time>
      </trkpt>
      <trkpt lat="43.20418" lon="-1.66359">
        <ele>81</ele>
        <time>2010-01-01T01:41:11Z</time>
      </trkpt>
      <trkpt lat="43.2041" lon="-1.66381">
        <ele>82</ele>
        <time>2010-01-01T01:41:18Z</time>
      </trkpt>
      <trkpt lat="43.20402" lon="-1.664">
        <ele>82</ele>
        <time>2010-01-01T01:41:24Z</time>
      </trkpt>
      <trkpt lat="43.20398" lon="-1.66416">
        <ele>81</ele>
        <time>2010-01-01T01:41:29Z</time>
      </trkpt>
      <trkpt lat="43.20392" lon="-1.66433">
        <ele>81</ele>
        <time>2010-01-01T01:41:35Z</time>
      </trkpt>
      <trkpt lat="43.20386" lon="-1.66457">
        <ele>82</ele>
        <time>2010-01-01T01:41:42Z</time>
      </trkpt>
      <trkpt lat="43.20379" lon="-1.66475">
        <ele>83</ele>
        <time>2010-01-01T01:41:48Z</time>
      </trkpt>
      <trkpt lat="43.20376" lon="-1.66488">
        <ele>84</ele>
        <time>2010-01-01T01:41:52Z</time>
      </trkpt>
      <trkpt lat="43.20372" lon="-1.66501">
        <ele>84</ele>
        <time>2010-01-01T01:41:56Z</time>
      </trkpt>
      <trkpt lat="43.2037" lon="-1.66513">
        <ele>83</ele>
        <time>2010-01-01T01:42:00Z</time>
      </trkpt>
      <trkpt lat="43.20367" lon="-1.66527">
        <ele>83</ele>
        <time>2010-01-01T01:42:04Z</time>
      </trkpt>
      <trkpt lat="43.20365" lon="-1.66547">
        <ele>81</ele>
        <time>2010-01-01T01:42:10Z</time>
      </trkpt>
      <trkpt lat="43.20362" lon="-1.66566">
        <ele>80</ele>
        <time>2010-01-01T01:42:15Z</time>
      </trkpt>
      <trkpt lat="43.20357" lon="-1.66592">
        <ele>80</ele>
        <time>2010-01-01T01:42:23Z</time>
      </trkpt>
      <trkpt lat="43.20351" lon="-1.6662">
        <ele>81</ele>
        <time>2010-01-01T01:42:32Z</time>
      </trkpt>
      <trkpt lat="43.20349" lon="-1.66635">
        <ele>81</ele>
        <time>2010-01-01T01:42:36Z</time>
      </trkpt>
      <trkpt lat="43.20343" lon="-1.66658">
        <ele>81</ele>
        <time>2010-01-01T01:42:44Z</time>
      </trkpt>
      <trkpt lat="43.20341" lon="-1.66673">
        <ele>82</ele>
        <time>2010-01-01T01:42:48Z</time>
      </trkpt>
      <trkpt lat="43.20338" lon="-1.66691">
        <ele>82</ele>
        <time>2010-01-01T01:42:53Z</time>
      </trkpt>
      <trkpt lat="43.20333" lon="-1.66716">
        <ele>80</ele>
        <time>2010-01-01T01:43:01Z</time>
      </trkpt>
      <trkpt lat="43.20328" lon="-1.66744">
        <ele>80</ele>
        <time>2010-01-01T01:43:09Z</time>
      </trkpt>
      <trkpt lat="43.20324" lon="-1.66768">
        <ele>81</ele>
        <time>2010-01-01T01:43:16Z</time>
      </trkpt>
      <trkpt lat="43.20322" lon="-1.66789">
        <ele>82</ele>
        <time>2010-01-01T01:43:23Z</time>
      </trkpt>
      <trkpt lat="43.2032" lon="-1.66808">
        <ele>83</ele>
        <time>2010-01-01T01:43:28Z</time>
      </trkpt>
      <trkpt lat="43.20317" lon="-1.66829">
        <ele>84</ele>
        <time>2010-01-01T01:43:34Z</time>
      </trkpt>
      <trkpt lat="43.20315" lon="-1.66844">
        <ele>84</ele>
        <time>2010-01-01T01:43:39Z</time>
      </trkpt>
      <trkpt lat="43.20315" lon="-1.6686">
        <ele>84</ele>
        <time>2010-01-01T01:43:43Z</time>
      </trkpt>
      <trkpt lat="43.20312" lon="-1.66876">
        <ele>83</ele>
        <time>2010-01-01T01:43:48Z</time>
      </trkpt>
      <trkpt lat="43.20311" lon="-1.66892">
        <ele>83</ele>
        <time>2010-01-01T01:43:53Z</time>
      </trkpt>
      <trkpt lat="43.2031" lon="-1.66905">
        <ele>84</ele>
        <time>2010-01-01T01:43:57Z</time>
      </trkpt>
      <trkpt lat="43.20308" lon="-1.66919">
        <ele>84</ele>
        <time>2010-01-01T01:44:01Z</time>
      </trkpt>
      <trkpt lat="43.20307" lon="-1.66947">
        <ele>84</ele>
        <time>2010-01-01T01:44:09Z</time>
      </trkpt>
      <trkpt lat="43.20306" lon="-1.66955">
        <ele>84</ele>
        <time>2010-01-01T01:44:11Z</time>
      </trkpt>
      <trkpt lat="43.20305" lon="-1.66964">
        <ele>83</ele>
        <time>2010-01-01T01:44:14Z</time>
      </trkpt>
      <trkpt lat="43.20303" lon="-1.66979">
        <ele>83</ele>
        <time>2010-01-01T01:44:19Z</time>
      </trkpt>
      <trkpt lat="43.20303" lon="-1.66995">
        <ele>83</ele>
        <time>2010-01-01T01:44:23Z</time>
      </trkpt>
      <trkpt lat="43.20302" lon="-1.67006">
        <ele>84</ele>
        <time>2010-01-01T01:44:27Z</time>
      </trkpt>
      <trkpt lat="43.20301" lon="-1.67022">
        <ele>86</ele>
        <time>2010-01-01T01:44:31Z</time>
      </trkpt>
      <trkpt lat="43.203" lon="-1.67031">
        <ele>87</ele>
        <time>2010-01-01T01:44:34Z</time>
      </trkpt>
      <trkpt lat="43.20301" lon="-1.67043">
        <ele>89</ele>
        <time>2010-01-01T01:44:37Z</time>
      </trkpt>
      <trkpt lat="43.20301" lon="-1.67053">
        <ele>90</ele>
        <time>2010-01-01T01:44:40Z</time>
      </trkpt>
      <trkpt lat="43.20299" lon="-1.67063">
        <ele>91</ele>
        <time>2010-01-01T01:44:43Z</time>
      </trkpt>
      <trkpt lat="43.20298" lon="-1.6707">
        <ele>93</ele>
        <time>2010-01-01T01:44:45Z</time>
      </trkpt>
      <trkpt lat="43.20291" lon="-1.67106">
        <ele>99</ele>
        <time>2010-01-01T01:44:56Z</time>
      </trkpt>
      <trkpt lat="43.2029" lon="-1.67113">
        <ele>100</ele>
        <time>2010-01-01T01:44:58Z</time>
      </trkpt>
      <trkpt lat="43.20288" lon="-1.67126">
        <ele>100</ele>
        <time>2010-01-01T01:45:02Z</time>
      </trkpt>
      <trkpt lat="43.20284" lon="-1.67141">
        <ele>100</ele>
        <time>2010-01-01T01:45:07Z</time>
      </trkpt>
      <trkpt lat="43.20279" lon="-1.67156">
        <ele>99</ele>
        <time>2010-01-01T01:45:12Z</time>
      </trkpt>
      <trkpt lat="43.20275" lon="-1.67168">
        <ele>97</ele>
        <time>2010-01-01T01:45:16Z</time>
      </trkpt>
      <trkpt lat="43.20271" lon="-1.67179">
        <ele>95</ele>
        <time>2010-01-01T01:45:19Z</time>
      </trkpt>
      <trkpt lat="43.20265" lon="-1.67191">
        <ele>92</ele>
        <time>2010-01-01T01:45:23Z</time>
      </trkpt>
      <trkpt lat="43.20257" lon="-1.67204">
        <ele>89</ele>
        <time>2010-01-01T01:45:28Z</time>
      </trkpt>
      <trkpt lat="43.20254" lon="-1.67211">
        <ele>88</ele>
        <time>2010-01-01T01:45:31Z</time>
      </trkpt>
      <trkpt lat="43.20245" lon="-1.67226">
        <ele>87</ele>
        <time>2010-01-01T01:45:36Z</time>
      </trkpt>
      <trkpt lat="43.20237" lon="-1.67236">
        <ele>89</ele>
        <time>2010-01-01T01:45:41Z</time>
      </trkpt>
      <trkpt lat="43.20226" lon="-1.67253">
        <ele>91</ele>
        <time>2010-01-01T01:45:47Z</time>
      </trkpt>
      <trkpt lat="43.20216" lon="-1.67268">
        <ele>93</ele>
        <time>2010-01-01T01:45:53Z</time>
      </trkpt>
      <trkpt lat="43.2021" lon="-1.67277">
        <ele>94</ele>
        <time>2010-01-01T01:45:57Z</time>
      </trkpt>
      <trkpt lat="43.20205" lon="-1.67284">
        <ele>93</ele>
        <time>2010-01-01T01:46:00Z</time>
      </trkpt>
      <trkpt lat="43.20192" lon="-1.67303">
        <ele>91</ele>
        <time>2010-01-01T01:46:07Z</time>
      </trkpt>
      <trkpt lat="43.20183" lon="-1.67314">
        <ele>89</ele>
        <time>2010-01-01T01:46:12Z</time>
      </trkpt>
      <trkpt lat="43.20179" lon="-1.6732">
        <ele>89</ele>
        <time>2010-01-01T01:46:15Z</time>
      </trkpt>
      <trkpt lat="43.20167" lon="-1.67332">
        <ele>85</ele>
        <time>2010-01-01T01:46:20Z</time>
      </trkpt>
      <trkpt lat="43.20154" lon="-1.67343">
        <ele>86</ele>
        <time>2010-01-01T01:46:27Z</time>
      </trkpt>
      <trkpt lat="43.20145" lon="-1.6735">
        <ele>85</ele>
        <time>2010-01-01T01:46:31Z</time>
      </trkpt>
      <trkpt lat="43.20137" lon="-1.67352">
        <ele>83</ele>
        <time>2010-01-01T01:46:34Z</time>
      </trkpt>
      <trkpt lat="43.20128" lon="-1.67356">
        <ele>83</ele>
        <time>2010-01-01T01:46:37Z</time>
      </trkpt>
      <trkpt lat="43.20117" lon="-1.67361">
        <ele>83</ele>
        <time>2010-01-01T01:46:42Z</time>
      </trkpt>
      <trkpt lat="43.20104" lon="-1.67365">
        <ele>84</ele>
        <time>2010-01-01T01:46:47Z</time>
      </trkpt>
      <trkpt lat="43.201" lon="-1.67368">
        <ele>86</ele>
        <time>2010-01-01T01:46:49Z</time>
      </trkpt>
      <trkpt lat="43.20094" lon="-1.6737">
        <ele>87</ele>
        <time>2010-01-01T01:46:52Z</time>
      </trkpt>
      <trkpt lat="43.20087" lon="-1.67373">
        <ele>88</ele>
        <time>2010-01-01T01:46:55Z</time>
      </trkpt>
      <trkpt lat="43.20073" lon="-1.67382">
        <ele>93</ele>
        <time>2010-01-01T01:47:01Z</time>
      </trkpt>
      <trkpt lat="43.20061" lon="-1.67386">
        <ele>96</ele>
        <time>2010-01-01T01:47:06Z</time>
      </trkpt>
      <trkpt lat="43.20053" lon="-1.67387">
        <ele>98</ele>
        <time>2010-01-01T01:47:09Z</time>
      </trkpt>
      <trkpt lat="43.20043" lon="-1.67387">
        <ele>99</ele>
        <time>2010-01-01T01:47:13Z</time>
      </trkpt>
      <trkpt lat="43.20039" lon="-1.67385">
        <ele>98</ele>
        <time>2010-01-01T01:47:15Z</time>
      </trkpt>
      <trkpt lat="43.20027" lon="-1.67384">
        <ele>99</ele>
        <time>2010-01-01T01:47:20Z</time>
      </trkpt>
      <trkpt lat="43.20014" lon="-1.67381">
        <ele>97</ele>
        <time>2010-01-01T01:47:25Z</time>
      </trkpt>
      <trkpt lat="43.20008" lon="-1.67377">
        <ele>95</ele>
        <time>2010-01-01T01:47:28Z</time>
      </trkpt>
      <trkpt lat="43.20001" lon="-1.6737">
        <ele>94</ele>
        <time>2010-01-01T01:47:31Z</time>
      </trkpt>
      <trkpt lat="43.19994" lon="-1.67361">
        <ele>95</ele>
        <time>2010-01-01T01:47:35Z</time>
      </trkpt>
      <trkpt lat="43.19986" lon="-1.67353">
        <ele>98</ele>
        <time>2010-01-01T01:47:39Z</time>
      </trkpt>
      <trkpt lat="43.19979" lon="-1.67345">
        <ele>100</ele>
        <time>2010-01-01T01:47:43Z</time>
      </trkpt>
      <trkpt lat="43.19973" lon="-1.67336">
        <ele>101</ele>
        <time>2010-01-01T01:47:46Z</time>
      </trkpt>
      <trkpt lat="43.19968" lon="-1.67323">
        <ele>100</ele>
        <time>2010-01-01T01:47:50Z</time>
      </trkpt>
      <trkpt lat="43.19963" lon="-1.67314">
        <ele>99</ele>
        <time>2010-01-01T01:47:54Z</time>
      </trkpt>
      <trkpt lat="43.19957" lon="-1.67309">
        <ele>101</ele>
        <time>2010-01-01T01:47:56Z</time>
      </trkpt>
      <trkpt lat="43.19953" lon="-1.67307">
        <ele>103</ele>
        <time>2010-01-01T01:47:58Z</time>
      </trkpt>
      <trkpt lat="43.1995" lon="-1.67296">
        <ele>101</ele>
        <time>2010-01-01T01:48:01Z</time>
      </trkpt>
      <trkpt lat="43.19946" lon="-1.67294">
        <ele>103</ele>
        <time>2010-01-01T01:48:03Z</time>
      </trkpt>
      <trkpt lat="43.19942" lon="-1.67286">
        <ele>103</ele>
        <time>2010-01-01T01:48:06Z</time>
      </trkpt>
      <trkpt lat="43.1994" lon="-1.67269">
        <ele>99</ele>
        <time>2010-01-01T01:48:11Z</time>
      </trkpt>
      <trkpt lat="43.19938" lon="-1.67257">
        <ele>98</ele>
        <time>2010-01-01T01:48:15Z</time>
      </trkpt>
      <trkpt lat="43.19935" lon="-1.67216">
        <ele>96</ele>
        <time>2010-01-01T01:48:27Z</time>
      </trkpt>
      <trkpt lat="43.19936" lon="-1.67191">
        <ele>94</ele>
        <time>2010-01-01T01:48:34Z</time>
      </trkpt>
      <trkpt lat="43.19935" lon="-1.67169">
        <ele>95</ele>
        <time>2010-01-01T01:48:40Z</time>
      </trkpt>
      <trkpt lat="43.19926" lon="-1.67151">
        <ele>98</ele>
        <time>2010-01-01T01:48:47Z</time>
      </trkpt>
      <trkpt lat="43.1992" lon="-1.67145">
        <ele>101</ele>
        <time>2010-01-01T01:48:50Z</time>
      </trkpt>
      <trkpt lat="43.19907" lon="-1.67141">
        <ele>106</ele>
        <time>2010-01-01T01:48:55Z</time>
      </trkpt>
      <trkpt lat="43.19895" lon="-1.67141">
        <ele>110</ele>
        <time>2010-01-01T01:49:00Z</time>
      </trkpt>
      <trkpt lat="43.19883" lon="-1.67147">
        <ele>114</ele>
        <time>2010-01-01T01:49:05Z</time>
      </trkpt>
      <trkpt lat="43.19767" lon="-1.67192">
        <ele>100</ele>
        <time>2010-01-01T01:49:53Z</time>
      </trkpt>
      <trkpt lat="43.1976" lon="-1.67199">
        <ele>101</ele>
        <time>2010-01-01T01:49:57Z</time>
      </trkpt>
      <trkpt lat="43.19727" lon="-1.67213">
        <ele>98</ele>
        <time>2010-01-01T01:50:11Z</time>
      </trkpt>
      <trkpt lat="43.19702" lon="-1.67222">
        <ele>96</ele>
        <time>2010-01-01T01:50:21Z</time>
      </trkpt>
      <trkpt lat="43.19673" lon="-1.67225">
        <ele>99</ele>
        <time>2010-01-01T01:50:33Z</time>
      </trkpt>
      <trkpt lat="43.19646" lon="-1.67221">
        <ele>103</ele>
        <time>2010-01-01T01:50:44Z</time>
      </trkpt>
      <trkpt lat="43.19602" lon="-1.67195">
        <ele>108</ele>
        <time>2010-01-01T01:51:03Z</time>
      </trkpt>
      <trkpt lat="43.19572" lon="-1.67171">
        <ele>106</ele>
        <time>2010-01-01T01:51:17Z</time>
      </trkpt>
      <trkpt lat="43.1954" lon="-1.67136">
        <ele>102</ele>
        <time>2010-01-01T01:51:33Z</time>
      </trkpt>
      <trkpt lat="43.19519" lon="-1.671">
        <ele>104</ele>
        <time>2010-01-01T01:51:46Z</time>
      </trkpt>
      <trkpt lat="43.19497" lon="-1.67056">
        <ele>108</ele>
        <time>2010-01-01T01:52:02Z</time>
      </trkpt>
      <trkpt lat="43.19485" lon="-1.67032">
        <ele>109</ele>
        <time>2010-01-01T01:52:11Z</time>
      </trkpt>
      <trkpt lat="43.19469" lon="-1.66946">
        <ele>102</ele>
        <time>2010-01-01T01:52:37Z</time>
      </trkpt>
      <trkpt lat="43.19472" lon="-1.66839">
        <ele>94</ele>
        <time>2010-01-01T01:53:08Z</time>
      </trkpt>
      <trkpt lat="43.19472" lon="-1.66786">
        <ele>92</ele>
        <time>2010-01-01T01:53:23Z</time>
      </trkpt>
      <trkpt lat="43.19476" lon="-1.6671">
        <ele>96</ele>
        <time>2010-01-01T01:53:45Z</time>
      </trkpt>
      <trkpt lat="43.19471" lon="-1.66666">
        <ele>94</ele>
        <time>2010-01-01T01:53:58Z</time>
      </trkpt>
      <trkpt lat="43.19463" lon="-1.66643">
        <ele>94</ele>
        <time>2010-01-01T01:54:06Z</time>
      </trkpt>
      <trkpt lat="43.19456" lon="-1.66618">
        <ele>94</ele>
        <time>2010-01-01T01:54:14Z</time>
      </trkpt>
      <trkpt lat="43.19452" lon="-1.6658">
        <ele>92</ele>
        <time>2010-01-01T01:54:25Z</time>
      </trkpt>
      <trkpt lat="43.19447" lon="-1.66568">
        <ele>91</ele>
        <time>2010-01-01T01:54:29Z</time>
      </trkpt>
      <trkpt lat="43.19442" lon="-1.66556">
        <ele>90</ele>
        <time>2010-01-01T01:54:33Z</time>
      </trkpt>
      <trkpt lat="43.19434" lon="-1.6655">
        <ele>89</ele>
        <time>2010-01-01T01:54:37Z</time>
      </trkpt>
      <trkpt lat="43.19415" lon="-1.66552">
        <ele>90</ele>
        <time>2010-01-01T01:54:44Z</time>
      </trkpt>
      <trkpt lat="43.19377" lon="-1.6656">
        <ele>90</ele>
        <time>2010-01-01T01:55:00Z</time>
      </trkpt>
      <trkpt lat="43.19339" lon="-1.66566">
        <ele>91</ele>
        <time>2010-01-01T01:55:15Z</time>
      </trkpt>
      <trkpt lat="43.19311" lon="-1.66584">
        <ele>92</ele>
        <time>2010-01-01T01:55:27Z</time>
      </trkpt>
      <trkpt lat="43.19288" lon="-1.66597">
        <ele>92</ele>
        <time>2010-01-01T01:55:37Z</time>
      </trkpt>
      <trkpt lat="43.19291" lon="-1.66606">
        <ele>95</ele>
        <time>2010-01-01T01:55:40Z</time>
      </trkpt>
      <trkpt lat="43.19287" lon="-1.66661">
        <ele>114</ele>
        <time>2010-01-01T01:55:57Z</time>
      </trkpt>
      <trkpt lat="43.19268" lon="-1.66689">
        <ele>124</ele>
        <time>2010-01-01T01:56:08Z</time>
      </trkpt>
      <trkpt lat="43.19257" lon="-1.66707">
        <ele>128</ele>
        <time>2010-01-01T01:56:15Z</time>
      </trkpt>
      <trkpt lat="43.19241" lon="-1.66721">
        <ele>133</ele>
        <time>2010-01-01T01:56:22Z</time>
      </trkpt>
      <trkpt lat="43.19235" lon="-1.66729">
        <ele>135</ele>
        <time>2010-01-01T01:56:26Z</time>
      </trkpt>
      <trkpt lat="43.19168" lon="-1.66779">
        <ele>134</ele>
        <time>2010-01-01T01:56:56Z</time>
      </trkpt>
      <trkpt lat="43.19159" lon="-1.66785">
        <ele>132</ele>
        <time>2010-01-01T01:57:00Z</time>
      </trkpt>
      <trkpt lat="43.1914" lon="-1.66799">
        <ele>127</ele>
        <time>2010-01-01T01:57:09Z</time>
      </trkpt>
      <trkpt lat="43.19116" lon="-1.66814">
        <ele>121</ele>
        <time>2010-01-01T01:57:19Z</time>
      </trkpt>
      <trkpt lat="43.1907" lon="-1.66842">
        <ele>109</ele>
        <time>2010-01-01T01:57:39Z</time>
      </trkpt>
      <trkpt lat="43.1905" lon="-1.66884">
        <ele>106</ele>
        <time>2010-01-01T01:57:54Z</time>
      </trkpt>
      <trkpt lat="43.19045" lon="-1.6692">
        <ele>104</ele>
        <time>2010-01-01T01:58:05Z</time>
      </trkpt>
      <trkpt lat="43.19043" lon="-1.66936">
        <ele>102</ele>
        <time>2010-01-01T01:58:09Z</time>
      </trkpt>
      <trkpt lat="43.19045" lon="-1.66957">
        <ele>101</ele>
        <time>2010-01-01T01:58:16Z</time>
      </trkpt>
      <trkpt lat="43.19045" lon="-1.66987">
        <ele>103</ele>
        <time>2010-01-01T01:58:24Z</time>
      </trkpt>
      <trkpt lat="43.19046" lon="-1.67042">
        <ele>111</ele>
        <time>2010-01-01T01:58:40Z</time>
      </trkpt>
      <trkpt lat="43.1904" lon="-1.67066">
        <ele>108</ele>
        <time>2010-01-01T01:58:48Z</time>
      </trkpt>
      <trkpt lat="43.1904" lon="-1.67093">
        <ele>107</ele>
        <time>2010-01-01T01:58:56Z</time>
      </trkpt>
      <trkpt lat="43.19044" lon="-1.67171">
        <ele>116</ele>
        <time>2010-01-01T01:59:18Z</time>
      </trkpt>
      <trkpt lat="43.19046" lon="-1.67218">
        <ele>118</ele>
        <time>2010-01-01T01:59:32Z</time>
      </trkpt>
      <trkpt lat="43.19038" lon="-1.67268">
        <ele>119</ele>
        <time>2010-01-01T01:59:47Z</time>
      </trkpt>
      <trkpt lat="43.19012" lon="-1.67366">
        <ele>108</ele>
        <time>2010-01-01T02:00:18Z</time>
      </trkpt>
      <trkpt lat="43.18997" lon="-1.67417">
        <ele>105</ele>
        <time>2010-01-01T02:00:34Z</time>
      </trkpt>
      <trkpt lat="43.18986" lon="-1.67456">
        <ele>104</ele>
        <time>2010-01-01T02:00:46Z</time>
      </trkpt>
      <trkpt lat="43.18972" lon="-1.67493">
        <ele>99</ele>
        <time>2010-01-01T02:00:58Z</time>
      </trkpt>
      <trkpt lat="43.18951" lon="-1.67532">
        <ele>103</ele>
        <time>2010-01-01T02:01:12Z</time>
      </trkpt>
      <trkpt lat="43.1894" lon="-1.67549">
        <ele>104</ele>
        <time>2010-01-01T02:01:19Z</time>
      </trkpt>
      <trkpt lat="43.18907" lon="-1.67573">
        <ele>98</ele>
        <time>2010-01-01T02:01:34Z</time>
      </trkpt>
      <trkpt lat="43.18883" lon="-1.67581">
        <ele>98</ele>
        <time>2010-01-01T02:01:44Z</time>
      </trkpt>
      <trkpt lat="43.18859" lon="-1.67585">
        <ele>97</ele>
        <time>2010-01-01T02:01:53Z</time>
      </trkpt>
      <trkpt lat="43.18833" lon="-1.67576">
        <ele>97</ele>
        <time>2010-01-01T02:02:04Z</time>
      </trkpt>
      <trkpt lat="43.18813" lon="-1.67567">
        <ele>102</ele>
        <time>2010-01-01T02:02:12Z</time>
      </trkpt>
      <trkpt lat="43.18778" lon="-1.67543">
        <ele>110</ele>
        <time>2010-01-01T02:02:28Z</time>
      </trkpt>
      <trkpt lat="43.18754" lon="-1.67505">
        <ele>109</ele>
        <time>2010-01-01T02:02:43Z</time>
      </trkpt>
      <trkpt lat="43.18737" lon="-1.67452">
        <ele>103</ele>
        <time>2010-01-01T02:03:00Z</time>
      </trkpt>
      <trkpt lat="43.18691" lon="-1.67316">
        <ele>95</ele>
        <time>2010-01-01T02:03:43Z</time>
      </trkpt>
      <trkpt lat="43.18668" lon="-1.67247">
        <ele>93</ele>
        <time>2010-01-01T02:04:06Z</time>
      </trkpt>
      <trkpt lat="43.18659" lon="-1.67219">
        <ele>94</ele>
        <time>2010-01-01T02:04:15Z</time>
      </trkpt>
      <trkpt lat="43.18628" lon="-1.67133">
        <ele>93</ele>
        <time>2010-01-01T02:04:43Z</time>
      </trkpt>
      <trkpt lat="43.18611" lon="-1.67079">
        <ele>94</ele>
        <time>2010-01-01T02:05:00Z</time>
      </trkpt>
      <trkpt lat="43.18593" lon="-1.67047">
        <ele>96</ele>
        <time>2010-01-01T02:05:11Z</time>
      </trkpt>
      <trkpt lat="43.1859" lon="-1.67043">
        <ele>96</ele>
        <time>2010-01-01T02:05:13Z</time>
      </trkpt>
      <trkpt lat="43.18582" lon="-1.67029">
        <ele>96</ele>
        <time>2010-01-01T02:05:18Z</time>
      </trkpt>
      <trkpt lat="43.18567" lon="-1.67014">
        <ele>94</ele>
        <time>2010-01-01T02:05:26Z</time>
      </trkpt>
      <trkpt lat="43.18555" lon="-1.67002">
        <ele>92</ele>
        <time>2010-01-01T02:05:32Z</time>
      </trkpt>
      <trkpt lat="43.18533" lon="-1.6699">
        <ele>90</ele>
        <time>2010-01-01T02:05:41Z</time>
      </trkpt>
      <trkpt lat="43.18499" lon="-1.66982">
        <ele>92</ele>
        <time>2010-01-01T02:05:55Z</time>
      </trkpt>
      <trkpt lat="43.18478" lon="-1.66982">
        <ele>93</ele>
        <time>2010-01-01T02:06:04Z</time>
      </trkpt>
      <trkpt lat="43.1833" lon="-1.67023">
        <ele>98</ele>
        <time>2010-01-01T02:07:04Z</time>
      </trkpt>
      <trkpt lat="43.18181" lon="-1.67065">
        <ele>102</ele>
        <time>2010-01-01T02:08:05Z</time>
      </trkpt>
      <trkpt lat="43.18142" lon="-1.67075">
        <ele>108</ele>
        <time>2010-01-01T02:08:21Z</time>
      </trkpt>
      <trkpt lat="43.18117" lon="-1.67083">
        <ele>111</ele>
        <time>2010-01-01T02:08:31Z</time>
      </trkpt>
      <trkpt lat="43.18101" lon="-1.67088">
        <ele>118</ele>
        <time>2010-01-01T02:08:37Z</time>
      </trkpt>
      <trkpt lat="43.18043" lon="-1.67082">
        <ele>112</ele>
        <time>2010-01-01T02:09:01Z</time>
      </trkpt>
      <trkpt lat="43.17997" lon="-1.67072">
        <ele>107</ele>
        <time>2010-01-01T02:09:19Z</time>
      </trkpt>
      <trkpt lat="43.17983" lon="-1.67053">
        <ele>107</ele>
        <time>2010-01-01T02:09:27Z</time>
      </trkpt>
      <trkpt lat="43.17975" lon="-1.67041">
        <ele>105</ele>
        <time>2010-01-01T02:09:32Z</time>
      </trkpt>
      <trkpt lat="43.17944" lon="-1.67002">
        <ele>99</ele>
        <time>2010-01-01T02:09:49Z</time>
      </trkpt>
      <trkpt lat="43.1788" lon="-1.66905">
        <ele>94</ele>
        <time>2010-01-01T02:10:27Z</time>
      </trkpt>
      <trkpt lat="43.17806" lon="-1.66802">
        <ele>95</ele>
        <time>2010-01-01T02:11:09Z</time>
      </trkpt>
      <trkpt lat="43.17771" lon="-1.66755">
        <ele>96</ele>
        <time>2010-01-01T02:11:29Z</time>
      </trkpt>
      <trkpt lat="43.17752" lon="-1.66737">
        <ele>97</ele>
        <time>2010-01-01T02:11:38Z</time>
      </trkpt>
      <trkpt lat="43.17727" lon="-1.66726">
        <ele>95</ele>
        <time>2010-01-01T02:11:48Z</time>
      </trkpt>
      <trkpt lat="43.17711" lon="-1.66723">
        <ele>96</ele>
        <time>2010-01-01T02:11:55Z</time>
      </trkpt>
      <trkpt lat="43.17696" lon="-1.66721">
        <ele>98</ele>
        <time>2010-01-01T02:12:01Z</time>
      </trkpt>
      <trkpt lat="43.17676" lon="-1.66726">
        <ele>101</ele>
        <time>2010-01-01T02:12:09Z</time>
      </trkpt>
      <trkpt lat="43.17656" lon="-1.66734">
        <ele>102</ele>
        <time>2010-01-01T02:12:18Z</time>
      </trkpt>
      <trkpt lat="43.17632" lon="-1.66756">
        <ele>100</ele>
        <time>2010-01-01T02:12:29Z</time>
      </trkpt>
      <trkpt lat="43.17612" lon="-1.66786">
        <ele>101</ele>
        <time>2010-01-01T02:12:41Z</time>
      </trkpt>
      <trkpt lat="43.176" lon="-1.66816">
        <ele>103</ele>
        <time>2010-01-01T02:12:51Z</time>
      </trkpt>
      <trkpt lat="43.17599" lon="-1.66823">
        <ele>103</ele>
        <time>2010-01-01T02:12:53Z</time>
      </trkpt>
      <trkpt lat="43.17593" lon="-1.66868">
        <ele>104</ele>
        <time>2010-01-01T02:13:06Z</time>
      </trkpt>
      <trkpt lat="43.17596" lon="-1.66898">
        <ele>105</ele>
        <time>2010-01-01T02:13:15Z</time>
      </trkpt>
      <trkpt lat="43.17598" lon="-1.66909">
        <ele>105</ele>
        <time>2010-01-01T02:13:19Z</time>
      </trkpt>
      <trkpt lat="43.17604" lon="-1.6695">
        <ele>107</ele>
        <time>2010-01-01T02:13:31Z</time>
      </trkpt>
      <trkpt lat="43.17623" lon="-1.67058">
        <ele>111</ele>
        <time>2010-01-01T02:14:03Z</time>
      </trkpt>
      <trkpt lat="43.17629" lon="-1.67114">
        <ele>113</ele>
        <time>2010-01-01T02:14:20Z</time>
      </trkpt>
      <trkpt lat="43.17634" lon="-1.6717">
        <ele>113</ele>
        <time>2010-01-01T02:14:36Z</time>
      </trkpt>
      <trkpt lat="43.1764" lon="-1.67227">
        <ele>110</ele>
        <time>2010-01-01T02:14:53Z</time>
      </trkpt>
      <trkpt lat="43.17641" lon="-1.67272">
        <ele>106</ele>
        <time>2010-01-01T02:15:06Z</time>
      </trkpt>
      <trkpt lat="43.17636" lon="-1.67343">
        <ele>103</ele>
        <time>2010-01-01T02:15:27Z</time>
      </trkpt>
      <trkpt lat="43.17636" lon="-1.67352">
        <ele>103</ele>
        <time>2010-01-01T02:15:30Z</time>
      </trkpt>
      <trkpt lat="43.1763" lon="-1.67392">
        <ele>106</ele>
        <time>2010-01-01T02:15:41Z</time>
      </trkpt>
      <trkpt lat="43.17623" lon="-1.67465">
        <ele>107</ele>
        <time>2010-01-01T02:16:03Z</time>
      </trkpt>
      <trkpt lat="43.17618" lon="-1.67511">
        <ele>108</ele>
        <time>2010-01-01T02:16:17Z</time>
      </trkpt>
      <trkpt lat="43.1761" lon="-1.67544">
        <ele>107</ele>
        <time>2010-01-01T02:16:27Z</time>
      </trkpt>
      <trkpt lat="43.17597" lon="-1.67576">
        <ele>106</ele>
        <time>2010-01-01T02:16:37Z</time>
      </trkpt>
      <trkpt lat="43.17573" lon="-1.67611">
        <ele>110</ele>
        <time>2010-01-01T02:16:52Z</time>
      </trkpt>
      <trkpt lat="43.17543" lon="-1.67653">
        <ele>122</ele>
        <time>2010-01-01T02:17:09Z</time>
      </trkpt>
      <trkpt lat="43.17501" lon="-1.67702">
        <ele>123</ele>
        <time>2010-01-01T02:17:31Z</time>
      </trkpt>
      <trkpt lat="43.17485" lon="-1.67719">
        <ele>127</ele>
        <time>2010-01-01T02:17:39Z</time>
      </trkpt>
      <trkpt lat="43.17477" lon="-1.67726">
        <ele>127</ele>
        <time>2010-01-01T02:17:43Z</time>
      </trkpt>
      <trkpt lat="43.17455" lon="-1.67737">
        <ele>124</ele>
        <time>2010-01-01T02:17:52Z</time>
      </trkpt>
      <trkpt lat="43.17434" lon="-1.67742">
        <ele>118</ele>
        <time>2010-01-01T02:18:01Z</time>
      </trkpt>
      <trkpt lat="43.17408" lon="-1.67737">
        <ele>112</ele>
        <time>2010-01-01T02:18:11Z</time>
      </trkpt>
      <trkpt lat="43.17386" lon="-1.67731">
        <ele>111</ele>
        <time>2010-01-01T02:18:20Z</time>
      </trkpt>
      <trkpt lat="43.17357" lon="-1.67738">
        <ele>113</ele>
        <time>2010-01-01T02:18:32Z</time>
      </trkpt>
      <trkpt lat="43.17308" lon="-1.67725">
        <ele>109</ele>
        <time>2010-01-01T02:18:52Z</time>
      </trkpt>
      <trkpt lat="43.17252" lon="-1.6771">
        <ele>108</ele>
        <time>2010-01-01T02:19:15Z</time>
      </trkpt>
      <trkpt lat="43.17144" lon="-1.6767">
        <ele>104</ele>
        <time>2010-01-01T02:20:00Z</time>
      </trkpt>
      <trkpt lat="43.17055" lon="-1.67638">
        <ele>109</ele>
        <time>2010-01-01T02:20:36Z</time>
      </trkpt>
      <trkpt lat="43.17042" lon="-1.67634">
        <ele>109</ele>
        <time>2010-01-01T02:20:42Z</time>
      </trkpt>
      <trkpt lat="43.17031" lon="-1.6763">
        <ele>108</ele>
        <time>2010-01-01T02:20:46Z</time>
      </trkpt>
      <trkpt lat="43.17012" lon="-1.67627">
        <ele>107</ele>
        <time>2010-01-01T02:20:54Z</time>
      </trkpt>
      <trkpt lat="43.16979" lon="-1.67632">
        <ele>106</ele>
        <time>2010-01-01T02:21:07Z</time>
      </trkpt>
      <trkpt lat="43.16948" lon="-1.67644">
        <ele>111</ele>
        <time>2010-01-01T02:21:20Z</time>
      </trkpt>
      <trkpt lat="43.169" lon="-1.67663">
        <ele>119</ele>
        <time>2010-01-01T02:21:40Z</time>
      </trkpt>
      <trkpt lat="43.16851" lon="-1.67666">
        <ele>113</ele>
        <time>2010-01-01T02:22:00Z</time>
      </trkpt>
      <trkpt lat="43.16834" lon="-1.67667">
        <ele>110</ele>
        <time>2010-01-01T02:22:07Z</time>
      </trkpt>
      <trkpt lat="43.16809" lon="-1.67651">
        <ele>112</ele>
        <time>2010-01-01T02:22:17Z</time>
      </trkpt>
      <trkpt lat="43.16804" lon="-1.67644">
        <ele>112</ele>
        <time>2010-01-01T02:22:20Z</time>
      </trkpt>
      <trkpt lat="43.16777" lon="-1.67614">
        <ele>109</ele>
        <time>2010-01-01T02:22:34Z</time>
      </trkpt>
      <trkpt lat="43.16753" lon="-1.67566">
        <ele>106</ele>
        <time>2010-01-01T02:22:51Z</time>
      </trkpt>
      <trkpt lat="43.16727" lon="-1.67511">
        <ele>107</ele>
        <time>2010-01-01T02:23:10Z</time>
      </trkpt>
      <trkpt lat="43.16678" lon="-1.67395">
        <ele>109</ele>
        <time>2010-01-01T02:23:50Z</time>
      </trkpt>
      <trkpt lat="43.16637" lon="-1.67306">
        <ele>105</ele>
        <time>2010-01-01T02:24:20Z</time>
      </trkpt>
      <trkpt lat="43.16604" lon="-1.6726">
        <ele>108</ele>
        <time>2010-01-01T02:24:39Z</time>
      </trkpt>
      <trkpt lat="43.16575" lon="-1.6723">
        <ele>111</ele>
        <time>2010-01-01T02:24:54Z</time>
      </trkpt>
      <trkpt lat="43.16573" lon="-1.67225">
        <ele>111</ele>
        <time>2010-01-01T02:24:55Z</time>
      </trkpt>
      <trkpt lat="43.16573" lon="-1.67225">
        <ele>111</ele>
        <time>2010-01-01T02:24:56Z</time>
      </trkpt>
      <trkpt lat="43.16555" lon="-1.67215">
        <ele>112</ele>
        <time>2010-01-01T02:25:03Z</time>
      </trkpt>
      <trkpt lat="43.16542" lon="-1.67209">
        <ele>114</ele>
        <time>2010-01-01T02:25:09Z</time>
      </trkpt>
      <trkpt lat="43.16519" lon="-1.67198">
        <ele>117</ele>
        <time>2010-01-01T02:25:18Z</time>
      </trkpt>
      <trkpt lat="43.16493" lon="-1.6718">
        <ele>118</ele>
        <time>2010-01-01T02:25:30Z</time>
      </trkpt>
      <trkpt lat="43.16485" lon="-1.67174">
        <ele>119</ele>
        <time>2010-01-01T02:25:34Z</time>
      </trkpt>
      <trkpt lat="43.16471" lon="-1.67167">
        <ele>121</ele>
        <time>2010-01-01T02:25:40Z</time>
      </trkpt>
      <trkpt lat="43.16444" lon="-1.67154">
        <ele>119</ele>
        <time>2010-01-01T02:25:51Z</time>
      </trkpt>
      <trkpt lat="43.16407" lon="-1.67134">
        <ele>116</ele>
        <time>2010-01-01T02:26:07Z</time>
      </trkpt>
      <trkpt lat="43.16403" lon="-1.67133">
        <ele>116</ele>
        <time>2010-01-01T02:26:09Z</time>
      </trkpt>
      <trkpt lat="43.16399" lon="-1.67132">
        <ele>116</ele>
        <time>2010-01-01T02:26:10Z</time>
      </trkpt>
      <trkpt lat="43.16343" lon="-1.67102">
        <ele>113</ele>
        <time>2010-01-01T02:26:34Z</time>
      </trkpt>
      <trkpt lat="43.16321" lon="-1.67094">
        <ele>113</ele>
        <time>2010-01-01T02:26:44Z</time>
      </trkpt>
      <trkpt lat="43.16311" lon="-1.67089">
        <ele>113</ele>
        <time>2010-01-01T02:26:48Z</time>
      </trkpt>
      <trkpt lat="43.16294" lon="-1.67088">
        <ele>113</ele>
        <time>2010-01-01T02:26:55Z</time>
      </trkpt>
      <trkpt lat="43.16252" lon="-1.67098">
        <ele>115</ele>
        <time>2010-01-01T02:27:12Z</time>
      </trkpt>
      <trkpt lat="43.16105" lon="-1.67146">
        <ele>109</ele>
        <time>2010-01-01T02:28:12Z</time>
      </trkpt>
      <trkpt lat="43.16069" lon="-1.6716">
        <ele>107</ele>
        <time>2010-01-01T02:28:27Z</time>
      </trkpt>
      <trkpt lat="43.16057" lon="-1.67162">
        <ele>107</ele>
        <time>2010-01-01T02:28:32Z</time>
      </trkpt>
      <trkpt lat="43.16002" lon="-1.67183">
        <ele>113</ele>
        <time>2010-01-01T02:28:55Z</time>
      </trkpt>
      <trkpt lat="43.15965" lon="-1.67191">
        <ele>113</ele>
        <time>2010-01-01T02:29:10Z</time>
      </trkpt>
      <trkpt lat="43.15904" lon="-1.67187">
        <ele>110</ele>
        <time>2010-01-01T02:29:34Z</time>
      </trkpt>
      <trkpt lat="43.1583" lon="-1.67191">
        <ele>116</ele>
        <time>2010-01-01T02:30:04Z</time>
      </trkpt>
      <trkpt lat="43.15766" lon="-1.67184">
        <ele>117</ele>
        <time>2010-01-01T02:30:29Z</time>
      </trkpt>
      <trkpt lat="43.15686" lon="-1.6716">
        <ele>119</ele>
        <time>2010-01-01T02:31:02Z</time>
      </trkpt>
      <trkpt lat="43.15649" lon="-1.67151">
        <ele>118</ele>
        <time>2010-01-01T02:31:17Z</time>
      </trkpt>
      <trkpt lat="43.15613" lon="-1.67142">
        <ele>115</ele>
        <time>2010-01-01T02:31:32Z</time>
      </trkpt>
      <trkpt lat="43.15577" lon="-1.67129">
        <ele>112</ele>
        <time>2010-01-01T02:31:47Z</time>
      </trkpt>
      <trkpt lat="43.1555" lon="-1.67118">
        <ele>110</ele>
        <time>2010-01-01T02:31:58Z</time>
      </trkpt>
      <trkpt lat="43.15483" lon="-1.67078">
        <ele>108</ele>
        <time>2010-01-01T02:32:28Z</time>
      </trkpt>
      <trkpt lat="43.15388" lon="-1.67023">
        <ele>110</ele>
        <time>2010-01-01T02:33:09Z</time>
      </trkpt>
      <trkpt lat="43.15345" lon="-1.66992">
        <ele>109</ele>
        <time>2010-01-01T02:33:28Z</time>
      </trkpt>
      <trkpt lat="43.15277" lon="-1.66957">
        <ele>116</ele>
        <time>2010-01-01T02:33:57Z</time>
      </trkpt>
      <trkpt lat="43.1519" lon="-1.66917">
        <ele>124</ele>
        <time>2010-01-01T02:34:34Z</time>
      </trkpt>
      <trkpt lat="43.15124" lon="-1.66905">
        <ele>123</ele>
        <time>2010-01-01T02:35:01Z</time>
      </trkpt>
      <trkpt lat="43.15092" lon="-1.66891">
        <ele>120</ele>
        <time>2010-01-01T02:35:14Z</time>
      </trkpt>
      <trkpt lat="43.15073" lon="-1.66885">
        <ele>119</ele>
        <time>2010-01-01T02:35:22Z</time>
      </trkpt>
      <trkpt lat="43.15053" lon="-1.6689">
        <ele>119</ele>
        <time>2010-01-01T02:35:30Z</time>
      </trkpt>
      <trkpt lat="43.1501" lon="-1.66902">
        <ele>122</ele>
        <time>2010-01-01T02:35:48Z</time>
      </trkpt>
      <trkpt lat="43.14963" lon="-1.6692">
        <ele>119</ele>
        <time>2010-01-01T02:36:07Z</time>
      </trkpt>
      <trkpt lat="43.14947" lon="-1.66925">
        <ele>117</ele>
        <time>2010-01-01T02:36:14Z</time>
      </trkpt>
      <trkpt lat="43.14909" lon="-1.6693">
        <ele>116</ele>
        <time>2010-01-01T02:36:29Z</time>
      </trkpt>
      <trkpt lat="43.14893" lon="-1.66921">
        <ele>114</ele>
        <time>2010-01-01T02:36:36Z</time>
      </trkpt>
      <trkpt lat="43.14802" lon="-1.66887">
        <ele>117</ele>
        <time>2010-01-01T02:37:14Z</time>
      </trkpt>
      <trkpt lat="43.14767" lon="-1.66878">
        <ele>117</ele>
        <time>2010-01-01T02:37:28Z</time>
      </trkpt>
      <trkpt lat="43.14733" lon="-1.66878">
        <ele>119</ele>
        <time>2010-01-01T02:37:42Z</time>
      </trkpt>
      <trkpt lat="43.14683" lon="-1.66887">
        <ele>122</ele>
        <time>2010-01-01T02:38:02Z</time>
      </trkpt>
      <trkpt lat="43.14634" lon="-1.6689">
        <ele>126</ele>
        <time>2010-01-01T02:38:21Z</time>
      </trkpt>
      <trkpt lat="43.14597" lon="-1.66888">
        <ele>127</ele>
        <time>2010-01-01T02:38:36Z</time>
      </trkpt>
      <trkpt lat="43.14539" lon="-1.66885">
        <ele>126</ele>
        <time>2010-01-01T02:38:59Z</time>
      </trkpt>
      <trkpt lat="43.14465" lon="-1.66891">
        <ele>131</ele>
        <time>2010-01-01T02:39:29Z</time>
      </trkpt>
      <trkpt lat="43.1443" lon="-1.66889">
        <ele>136</ele>
        <time>2010-01-01T02:39:43Z</time>
      </trkpt>
      <trkpt lat="43.1439" lon="-1.66877">
        <ele>128</ele>
        <time>2010-01-01T02:39:59Z</time>
      </trkpt>
      <trkpt lat="43.14361" lon="-1.66861">
        <ele>141</ele>
        <time>2010-01-01T02:40:12Z</time>
      </trkpt>
      <trkpt lat="43.14334" lon="-1.6683">
        <ele>138</ele>
        <time>2010-01-01T02:40:26Z</time>
      </trkpt>
      <trkpt lat="43.14301" lon="-1.66797">
        <ele>141</ele>
        <time>2010-01-01T02:40:42Z</time>
      </trkpt>
      <trkpt lat="43.14277" lon="-1.66766">
        <ele>145</ele>
        <time>2010-01-01T02:40:56Z</time>
      </trkpt>
      <trkpt lat="43.14262" lon="-1.66747">
        <ele>142</ele>
        <time>2010-01-01T02:41:04Z</time>
      </trkpt>
      <trkpt lat="43.14245" lon="-1.66736">
        <ele>139</ele>
        <time>2010-01-01T02:41:12Z</time>
      </trkpt>
      <trkpt lat="43.14241" lon="-1.66735">
        <ele>138</ele>
        <time>2010-01-01T02:41:13Z</time>
      </trkpt>
      <trkpt lat="43.14238" lon="-1.66734">
        <ele>137</ele>
        <time>2010-01-01T02:41:14Z</time>
      </trkpt>
      <trkpt lat="43.14169" lon="-1.66694">
        <ele>135</ele>
        <time>2010-01-01T02:41:44Z</time>
      </trkpt>
      <trkpt lat="43.14138" lon="-1.6668">
        <ele>137</ele>
        <time>2010-01-01T02:41:57Z</time>
      </trkpt>
      <trkpt lat="43.14109" lon="-1.66676">
        <ele>138</ele>
        <time>2010-01-01T02:42:09Z</time>
      </trkpt>
      <trkpt lat="43.14071" lon="-1.66673">
        <ele>140</ele>
        <time>2010-01-01T02:42:24Z</time>
      </trkpt>
      <trkpt lat="43.14034" lon="-1.66672">
        <ele>139</ele>
        <time>2010-01-01T02:42:39Z</time>
      </trkpt>
      <trkpt lat="43.13998" lon="-1.6666">
        <ele>141</ele>
        <time>2010-01-01T02:42:54Z</time>
      </trkpt>
      <trkpt lat="43.13979" lon="-1.6665">
        <ele>137</ele>
        <time>2010-01-01T02:43:02Z</time>
      </trkpt>
      <trkpt lat="43.13889" lon="-1.6659">
        <ele>134</ele>
        <time>2010-01-01T02:43:42Z</time>
      </trkpt>
      <trkpt lat="43.13866" lon="-1.6658">
        <ele>136</ele>
        <time>2010-01-01T02:43:52Z</time>
      </trkpt>
      <trkpt lat="43.1381" lon="-1.66574">
        <ele>139</ele>
        <time>2010-01-01T02:44:14Z</time>
      </trkpt>
      <trkpt lat="43.13748" lon="-1.66569">
        <ele>137</ele>
        <time>2010-01-01T02:44:39Z</time>
      </trkpt>
      <trkpt lat="43.13671" lon="-1.66564">
        <ele>132</ele>
        <time>2010-01-01T02:45:10Z</time>
      </trkpt>
      <trkpt lat="43.13632" lon="-1.6656">
        <ele>130</ele>
        <time>2010-01-01T02:45:25Z</time>
      </trkpt>
      <trkpt lat="43.13584" lon="-1.66567">
        <ele>131</ele>
        <time>2010-01-01T02:45:45Z</time>
      </trkpt>
      <trkpt lat="43.13568" lon="-1.66573">
        <ele>129</ele>
        <time>2010-01-01T02:45:51Z</time>
      </trkpt>
      <trkpt lat="43.1354" lon="-1.66593">
        <ele>128</ele>
        <time>2010-01-01T02:46:04Z</time>
      </trkpt>
      <trkpt lat="43.13518" lon="-1.66585">
        <ele>121</ele>
        <time>2010-01-01T02:46:13Z</time>
      </trkpt>
      <trkpt lat="43.13497" lon="-1.66579">
        <ele>119</ele>
        <time>2010-01-01T02:46:22Z</time>
      </trkpt>
      <trkpt lat="43.13428" lon="-1.66597">
        <ele>123</ele>
        <time>2010-01-01T02:46:50Z</time>
      </trkpt>
      <trkpt lat="43.13349" lon="-1.66596">
        <ele>122</ele>
        <time>2010-01-01T02:47:22Z</time>
      </trkpt>
      <trkpt lat="43.13344" lon="-1.66596">
        <ele>122</ele>
        <time>2010-01-01T02:47:24Z</time>
      </trkpt>
      <trkpt lat="43.13343" lon="-1.66598">
        <ele>122</ele>
        <time>2010-01-01T02:47:24Z</time>
      </trkpt>
      <trkpt lat="43.13334" lon="-1.66606">
        <ele>122</ele>
        <time>2010-01-01T02:47:29Z</time>
      </trkpt>
      <trkpt lat="43.13297" lon="-1.66637">
        <ele>122</ele>
        <time>2010-01-01T02:47:46Z</time>
      </trkpt>
      <trkpt lat="43.13284" lon="-1.66659">
        <ele>122</ele>
        <time>2010-01-01T02:47:54Z</time>
      </trkpt>
      <trkpt lat="43.13282" lon="-1.66664">
        <ele>122</ele>
        <time>2010-01-01T02:47:56Z</time>
      </trkpt>
      <trkpt lat="43.13272" lon="-1.66691">
        <ele>122</ele>
        <time>2010-01-01T02:48:05Z</time>
      </trkpt>
      <trkpt lat="43.13268" lon="-1.66701">
        <ele>121</ele>
        <time>2010-01-01T02:48:08Z</time>
      </trkpt>
      <trkpt lat="43.13261" lon="-1.66722">
        <ele>121</ele>
        <time>2010-01-01T02:48:15Z</time>
      </trkpt>
      <trkpt lat="43.1326" lon="-1.66724">
        <ele>121</ele>
        <time>2010-01-01T02:48:15Z</time>
      </trkpt>
      <trkpt lat="43.13255" lon="-1.66743">
        <ele>121</ele>
        <time>2010-01-01T02:48:21Z</time>
      </trkpt>
      <trkpt lat="43.1325" lon="-1.66779">
        <ele>123</ele>
        <time>2010-01-01T02:48:32Z</time>
      </trkpt>
      <trkpt lat="43.1325" lon="-1.6678">
        <ele>123</ele>
        <time>2010-01-01T02:48:32Z</time>
      </trkpt>
      <trkpt lat="43.13248" lon="-1.66799">
        <ele>124</ele>
        <time>2010-01-01T02:48:38Z</time>
      </trkpt>
    </trkseg>
  </trk>
</gpx>